Observation data for Stamford on 05/25/2020      Previous  Date       Current Mesonet Observations  Soil Data  Daily Summary Page  Observations in Plain Language
KST2 250500Z 07006KT 19/17 A2989 RMK A01 T01890174  RH  091%=      5-min Rain = 0
KST2 250501Z 06007KT 19/17 A2989 RMK A01 T01880173  RH  091%=      5-min Rain = 0
KST2 250502Z 07007KT 19/17 A2989 RMK A01 T01880173  RH  091%=      5-min Rain = 0.01
KST2 250503Z 07007KT 19/17 A2989 RMK A01 T01880174  RH  092%=      5-min Rain = 0
KST2 250504Z 07006KT 19/17 A2989 RMK A01 T01880174  RH  091%=      5-min Rain = 0
KST2 250505Z 07007KT 19/17 A2989 RMK A01 T01880174  RH  092%=      5-min Rain = 0
KST2 250506Z 08006KT 19/18 A2989 RMK A01 T01880175  RH  092%=      5-min Rain = 0.01
KST2 250507Z 08006KT 19/17 A2989 RMK A01 T01880174  RH  092%=      5-min Rain = 0
KST2 250508Z 09005KT 19/18 A2989 RMK A01 T01880175  RH  092%=      5-min Rain = 0
KST2 250509Z 08006KT 19/18 A2989 RMK A01 T01870175  RH  093%=      5-min Rain = 0
KST2 250510Z 08007KT 19/18 A2989 RMK A01 T01870176  RH  093%=      5-min Rain = 0.01
KST2 250511Z 08008KT 19/18 A2989 RMK A01 T01870176  RH  093%=      5-min Rain = 0
KST2 250512Z 09007KT 19/18 A2989 RMK A01 T01870175  RH  092%=      5-min Rain = 0
KST2 250513Z 08008KT 19/17 A2989 RMK A01 T01860173  RH  092%=      5-min Rain = 0
KST2 250514Z 08010KT 19/17 A299 RMK A01 T01860172  RH  092%=      5-min Rain = 0.01
KST2 250515Z 08010KT 19/17 A299 RMK A01 T01860172  RH  092%=      5-min Rain = 0
KST2 250516Z 08009KT 19/17 A299 RMK A01 T01860171  RH  091%=      5-min Rain = 0
KST2 250517Z 09009KT 19/17 A299 RMK A01 T01850170  RH  091%=      5-min Rain = 0
KST2 250518Z 09009KT 19/17 A299 RMK A01 T01850170  RH  091%=      5-min Rain = 0
KST2 250519Z 09010KT 19/17 A299 RMK A01 T01850169  RH  090%=      5-min Rain = 0.01
KST2 250520Z 08009KT 19/17 A299 RMK A01 T01850169  RH  090%=      5-min Rain = 0
KST2 250521Z 08009KT 19/17 A299 RMK A01 T01850169  RH  090%=      5-min Rain = 0
KST2 250522Z 09009KT 19/17 A299 RMK A01 T01850169  RH  090%=      5-min Rain = 0.01
KST2 250523Z 09009KT 19/17 A299 RMK A01 T01860169  RH  090%=      5-min Rain = 0
KST2 250524Z 08008KT 19/17 A299 RMK A01 T01850168  RH  090%=      5-min Rain = 0.01
KST2 250525Z 08007KT 19/17 A299 RMK A01 T01850169  RH  090%=      5-min Rain = 0
KST2 250526Z 07005KT 19/17 A299 RMK A01 T01850168  RH  090%=      5-min Rain = 0.01
KST2 250527Z 07005KT 19/17 A299 RMK A01 T01850168  RH  090%=      5-min Rain = 0
KST2 250528Z 07004KT 19/17 A299 RMK A01 T01850168  RH  090%=      5-min Rain = 0.01
KST2 250529Z 08005KT 19/17 A299 RMK A01 T01850169  RH  090%=      5-min Rain = 0.01
KST2 250530Z 08006KT 19/17 A299 RMK A01 T01850170  RH  091%=      5-min Rain = 0
KST2 250531Z 08006KT 19/17 A299 RMK A01 T01850170  RH  091%=      5-min Rain = 0.01
KST2 250532Z 07005KT 18/17 A299 RMK A01 T01840169  RH  091%=      5-min Rain = 0.01
KST2 250533Z 08005KT 18/17 A299 RMK A01 T01840170  RH  091%=      5-min Rain = 0
KST2 250534Z 08005KT 18/17 A299 RMK A01 T01840170  RH  092%=      5-min Rain = 0.01
KST2 250535Z 07004KT 18/17 A299 RMK A01 T01840171  RH  092%=      5-min Rain = 0.01
KST2 250536Z 08003KT 18/17 A299 RMK A01 T01840171  RH  092%=      5-min Rain = 0
KST2 250537Z 07003KT 18/17 A299 RMK A01 T01840171  RH  092%=      5-min Rain = 0.01
KST2 250538Z 06004KT 18/17 A299 RMK A01 T01840172  RH  093%=      5-min Rain = 0.01
KST2 250539Z 07005KT 18/17 A299 RMK A01 T01840172  RH  093%=      5-min Rain = 0
KST2 250540Z 08008KT 18/17 A299 RMK A01 T01830172  RH  093%=      5-min Rain = 0.01
KST2 250541Z 08007KT 18/17 A299 RMK A01 T01830171  RH  093%=      5-min Rain = 0
KST2 250542Z 08008KT 18/17 A299 RMK A01 T01820170  RH  093%=      5-min Rain = 0.01
KST2 250543Z 08008KT 18/17 A299 RMK A01 T01820171  RH  093%=      5-min Rain = 0
KST2 250544Z 08007KT 18/17 A2991 RMK A01 T01830171  RH  093%=      5-min Rain = 0
KST2 250545Z 08007KT 18/17 A299 RMK A01 T01830172  RH  093%=      5-min Rain = 0.01
KST2 250546Z 08006KT 18/17 A299 RMK A01 T01830172  RH  093%=      5-min Rain = 0.01
KST2 250547Z 07009KT 18/17 A299 RMK A01 T01830172  RH  094%=      5-min Rain = 0
KST2 250548Z 06010KT 18/17 A299 RMK A01 T01830173  RH  094%=      5-min Rain = 0
KST2 250549Z 06009KT 18/17 A299 RMK A01 T01830173  RH  094%=      5-min Rain = 0.01
KST2 250550Z 07009KT 18/17 A299 RMK A01 T01830173  RH  094%=      5-min Rain = 0
KST2 250551Z 07009KT 18/17 A299 RMK A01 T01830173  RH  094%=      5-min Rain = 0.01
KST2 250552Z 06010KT 18/17 A299 RMK A01 T01830173  RH  094%=      5-min Rain = 0
KST2 250553Z 06010KT 18/17 A299 RMK A01 T01820172  RH  094%=      5-min Rain = 0.01
KST2 250554Z 06010KT 18/17 A2989 RMK A01 T01820173  RH  094%=      5-min Rain = 0
KST2 250555Z 06011KT 18/17 A2989 RMK A01 T01820173  RH  094%=      5-min Rain = 0.01
KST2 250556Z 06012KT 18/17 A2989 RMK A01 T01820174  RH  095%=      5-min Rain = 0
KST2 250557Z 06012KT 18/17 A2989 RMK A01 T01820174  RH  095%=      5-min Rain = 0
KST2 250558Z 06012KT 18/17 A2989 RMK A01 T01820174  RH  095%=      5-min Rain = 0
KST2 250559Z 06013KT 18/17 A2989 RMK A01 T01820174  RH  095%=      5-min Rain = 0.01
KST2 250600Z 06012KT 18/17 A2989 RMK A01 T01820174  RH  095%=      5-min Rain = 0
KST2 250601Z 06012KT 18/17 A2989 RMK A01 T01820174  RH  095%=      5-min Rain = 0
KST2 250602Z 06013KT 18/17 A2989 RMK A01 T01810174  RH  095%=      5-min Rain = 0.01
KST2 250603Z 05013KT 18/17 A2989 RMK A01 T01820174  RH  095%=      5-min Rain = 0
KST2 250604Z 05013KT 18/17 A2989 RMK A01 T01810174  RH  095%=      5-min Rain = 0
KST2 250605Z 05012KT 18/17 A2988 RMK A01 T01810174  RH  096%=      5-min Rain = 0
KST2 250606Z 05014KT 18/17 A2988 RMK A01 T01810174  RH  096%=      5-min Rain = 0
KST2 250607Z 04014KT 18/17 A2988 RMK A01 T01810174  RH  096%=      5-min Rain = 0.01
KST2 250608Z 04015KT 18/17 A2988 RMK A01 T01810174  RH  096%=      5-min Rain = 0
KST2 250609Z 05015KT 18/17 A2988 RMK A01 T01800173  RH  096%=      5-min Rain = 0
KST2 250610Z 05016KT 18/17 A2988 RMK A01 T01800173  RH  096%=      5-min Rain = 0
KST2 250611Z 05015KT 18/17 A2988 RMK A01 T01800173  RH  096%=      5-min Rain = 0
KST2 250612Z 05017KT 18/17 A2988 RMK A01 T01800173  RH  096%=      5-min Rain = 0.01
KST2 250613Z 04016KT 18/17 A2988 RMK A01 T01800173  RH  096%=      5-min Rain = 0
KST2 250614Z 05017KT 18/17 A2988 RMK A01 T01800173  RH  096%=      5-min Rain = 0
KST2 250615Z 04014KT 18/17 A2988 RMK A01 T01800173  RH  096%=      5-min Rain = 0
KST2 250616Z 05015KT 18/17 A2988 RMK A01 T01790173  RH  096%=      5-min Rain = 0
KST2 250617Z 05016KT 18/17 A2987 RMK A01 T01790173  RH  096%=      5-min Rain = 0.01
KST2 250618Z 05019KT 18/17 A2987 RMK A01 T01790173  RH  096%=      5-min Rain = 0
KST2 250619Z 05018KT 18/17 A2987 RMK A01 T01780172  RH  096%=      5-min Rain = 0
KST2 250620Z 05017KT 18/17 A2986 RMK A01 T01780172  RH  096%=      5-min Rain = 0
KST2 250621Z 05018KT 18/17 A2986 RMK A01 T01780172  RH  096%=      5-min Rain = 0
KST2 250622Z 06019KT 18/17 A2986 RMK A01 T01780172  RH  096%=      5-min Rain = 0
KST2 250623Z 06017KT 18/17 A2987 RMK A01 T01780172  RH  096%=      5-min Rain = 0
KST2 250624Z 05019KT 18/17 A2987 RMK A01 T01780172  RH  096%=      5-min Rain = 0.01
KST2 250625Z 05019KT 18/17 A2987 RMK A01 T01780172  RH  096%=      5-min Rain = 0
KST2 250626Z 05019KT 18/17 A2987 RMK A01 T01780172  RH  096%=      5-min Rain = 0
KST2 250627Z 05020KT 18/17 A2987 RMK A01 T01780171  RH  096%=      5-min Rain = 0
KST2 250628Z 05019KT 18/17 A2987 RMK A01 T01780171  RH  096%=      5-min Rain = 0
KST2 250629Z 06019KT 18/17 A2986 RMK A01 T01770171  RH  096%=      5-min Rain = 0
KST2 250630Z 06019KT 18/17 A2986 RMK A01 T01770170  RH  096%=      5-min Rain = 0
KST2 250631Z 06022KT 18/17 A2986 RMK A01 T01770170  RH  096%=      5-min Rain = 0
KST2 250632Z 06023KT 18/17 A2985 RMK A01 T01770170  RH  095%=      5-min Rain = 0.01
KST2 250633Z 07023KT 18/17 A2985 RMK A01 T01780170  RH  095%=      5-min Rain = 0
KST2 250634Z 06024KT 18/17 A2985 RMK A01 T01770169  RH  095%=      5-min Rain = 0
KST2 250635Z 06026KT 18/17 A2984 RMK A01 T01770169  RH  095%=      5-min Rain = 0
KST2 250636Z 07026KT 18/17 A2984 RMK A01 T01770169  RH  095%=      5-min Rain = 0
KST2 250637Z 07027KT 18/17 A2984 RMK A01 T01770169  RH  095%=      5-min Rain = 0
KST2 250638Z 07027KT 18/17 A2984 RMK A01 T01770169  RH  095%=      5-min Rain = 0
KST2 250639Z 08028KT 18/17 A2983 RMK A01 T01770169  RH  095%=      5-min Rain = 0
KST2 250640Z 08027KT 18/17 A2983 RMK A01 T01770169  RH  095%=      5-min Rain = 0.01
KST2 250641Z 08028KT 18/17 A2982 RMK A01 T01770169  RH  095%=      5-min Rain = 0
KST2 250642Z 08027KT 18/17 A2981 RMK A01 T01770169  RH  095%=      5-min Rain = 0
KST2 250643Z 09028KT 18/17 A298 RMK A01 T01770168  RH  095%=      5-min Rain = 0
KST2 250644Z 09027KT 18/17 A2979 RMK A01 T01770168  RH  095%=      5-min Rain = 0
KST2 250645Z 08028KT 18/17 A2979 RMK A01 T01770168  RH  095%=      5-min Rain = 0.01
KST2 250646Z 08031KT 18/17 A2979 RMK A01 T01770168  RH  095%=      5-min Rain = 0
KST2 250647Z 08033KT 18/17 A2978 RMK A01 T01760167  RH  094%=      5-min Rain = 0
KST2 250648Z 08032KT 18/17 A2978 RMK A01 T01760167  RH  094%=      5-min Rain = 0
KST2 250649Z 08030KT 18/17 A2978 RMK A01 T01760166  RH  094%=      5-min Rain = 0.01
KST2 250650Z 08029KT 18/17 A2978 RMK A01 T01760167  RH  094%=      5-min Rain = 0
KST2 250651Z 08030G35KT 18/17 A2977 RMK A01 T01760167  RH  094%=      5-min Rain = 0
KST2 250652Z 08030G36KT 18/17 A2977 RMK A01 T01760166  RH  094%=      5-min Rain = 0
KST2 250653Z 08030G35KT 18/17 A2976 RMK A01 T01760165  RH  093%=      5-min Rain = 0
KST2 250654Z 08030KT 18/17 A2976 RMK A01 T01770165  RH  093%=      5-min Rain = 0
KST2 250655Z 09030KT 18/17 A2976 RMK A01 T01770166  RH  093%=      5-min Rain = 0
KST2 250656Z 09029KT 18/17 A2975 RMK A01 T01770166  RH  093%=      5-min Rain = 0.01
KST2 250657Z 10026KT 18/17 A2974 RMK A01 T01760165  RH  093%=      5-min Rain = 0
KST2 250658Z 10025KT 18/16 A2974 RMK A01 T01750164  RH  093%=      5-min Rain = 0
KST2 250659Z 09022G28KT 18/16 A2974 RMK A01 T01760162  RH  092%=      5-min Rain = 0
KST2 250700Z 09020G25KT 18/16 A2974 RMK A01 T01760159  RH  090%=      5-min Rain = 0
KST2 250701Z 08018G23KT 18/16 A2974 RMK A01 T01780160  RH  089%=      5-min Rain = 0
KST2 250702Z 09017G26KT 18/16 A2974 RMK A01 T01780162  RH  090%=      5-min Rain = 0.01
KST2 250703Z 09024G31KT 18/16 A2974 RMK A01 T01780161  RH  090%=      5-min Rain = 0
KST2 250704Z 08024G29KT 18/16 A2974 RMK A01 T01780163  RH  091%=      5-min Rain = 0
KST2 250705Z 08023KT 18/16 A2974 RMK A01 T01770164  RH  092%=      5-min Rain = 0
KST2 250706Z 09023G28KT 18/16 A2974 RMK A01 T01770163  RH  091%=      5-min Rain = 0
KST2 250707Z 08021KT 18/16 A2974 RMK A01 T01770162  RH  091%=      5-min Rain = 0
KST2 250708Z 08021KT 18/16 A2974 RMK A01 T01780162  RH  090%=      5-min Rain = 0
KST2 250709Z 09022KT 18/16 A2974 RMK A01 T01780162  RH  090%=      5-min Rain = 0
KST2 250710Z 09022G28KT 18/16 A2975 RMK A01 T01780164  RH  091%=      5-min Rain = 0
KST2 250711Z 09022KT 18/16 A2974 RMK A01 T01780163  RH  091%=      5-min Rain = 0
KST2 250712Z 10022G28KT 18/16 A2974 RMK A01 T01780160  RH  089%=      5-min Rain = 0
KST2 250713Z 10023KT 18/16 A2974 RMK A01 T01790158  RH  087%=      5-min Rain = 0
KST2 250714Z 10024KT 18/16 A2974 RMK A01 T01800156  RH  086%=      5-min Rain = 0
KST2 250715Z 10023KT 18/16 A2974 RMK A01 T01820155  RH  084%=      5-min Rain = 0
KST2 250716Z 10021KT 18/16 A2975 RMK A01 T01820156  RH  084%=      5-min Rain = 0
KST2 250717Z 10021KT 18/16 A2975 RMK A01 T01830156  RH  084%=      5-min Rain = 0
KST2 250718Z 10018G24KT 18/15 A2975 RMK A01 T01830154  RH  083%=      5-min Rain = 0
KST2 250719Z 10018KT 18/15 A2975 RMK A01 T01830154  RH  083%=      5-min Rain = 0
KST2 250720Z 09016KT 18/15 A2975 RMK A01 T01830154  RH  083%=      5-min Rain = 0
KST2 250721Z 09016KT 18/15 A2975 RMK A01 T01830154  RH  083%=      5-min Rain = 0
KST2 250722Z 09017KT 18/15 A2975 RMK A01 T01830154  RH  083%=      5-min Rain = 0
KST2 250723Z 09018G24KT 18/15 A2974 RMK A01 T01830154  RH  083%=      5-min Rain = 0
KST2 250724Z 09017KT 18/15 A2974 RMK A01 T01830153  RH  083%=      5-min Rain = 0
KST2 250725Z 09016KT 18/16 A2973 RMK A01 T01840155  RH  083%=      5-min Rain = 0
KST2 250726Z 08016G22KT 18/16 A2973 RMK A01 T01840156  RH  084%=      5-min Rain = 0
KST2 250727Z 09019KT 18/15 A2974 RMK A01 T01830154  RH  083%=      5-min Rain = 0
KST2 250728Z 08017KT 18/16 A2974 RMK A01 T01830155  RH  084%=      5-min Rain = 0
KST2 250729Z 08015KT 18/16 A2974 RMK A01 T01830157  RH  085%=      5-min Rain = 0
KST2 250730Z 08013KT 18/16 A2974 RMK A01 T01810157  RH  086%=      5-min Rain = 0
KST2 250731Z 08014KT 18/16 A2974 RMK A01 T01810158  RH  086%=      5-min Rain = 0
KST2 250732Z 09011KT 18/16 A2973 RMK A01 T01800158  RH  087%=      5-min Rain = 0
KST2 250733Z 09010KT 18/16 A2973 RMK A01 T01800159  RH  087%=      5-min Rain = 0
KST2 250734Z 08010KT 18/16 A2974 RMK A01 T01790159  RH  088%=      5-min Rain = 0
KST2 250735Z 09010KT 18/16 A2974 RMK A01 T01790160  RH  088%=      5-min Rain = 0
KST2 250736Z 09012KT 18/16 A2974 RMK A01 T01790159  RH  088%=      5-min Rain = 0
KST2 250737Z 10012KT 18/16 A2974 RMK A01 T01780156  RH  087%=      5-min Rain = 0
KST2 250738Z 10014G19KT 18/16 A2974 RMK A01 T01790155  RH  086%=      5-min Rain = 0
KST2 250739Z 11016KT 18/15 A2973 RMK A01 T01790153  RH  085%=      5-min Rain = 0
KST2 250740Z 11015G20KT 18/15 A2973 RMK A01 T01800152  RH  084%=      5-min Rain = 0
KST2 250741Z 11018KT 18/15 A2973 RMK A01 T01810152  RH  083%=      5-min Rain = 0
KST2 250742Z 11016KT 18/15 A2973 RMK A01 T01820151  RH  082%=      5-min Rain = 0
KST2 250743Z 11019KT 18/15 A2973 RMK A01 T01820150  RH  082%=      5-min Rain = 0
KST2 250744Z 10018KT 18/15 A2973 RMK A01 T01820150  RH  081%=      5-min Rain = 0
KST2 250745Z 10017G22KT 18/15 A2973 RMK A01 T01830151  RH  082%=      5-min Rain = 0
KST2 250746Z 11019KT 18/15 A2973 RMK A01 T01820151  RH  082%=      5-min Rain = 0
KST2 250747Z 10021KT 18/15 A2972 RMK A01 T01820150  RH  081%=      5-min Rain = 0
KST2 250748Z 10019KT 18/15 A2972 RMK A01 T01820150  RH  082%=      5-min Rain = 0
KST2 250749Z 10017KT 18/15 A2971 RMK A01 T01820151  RH  082%=      5-min Rain = 0
KST2 250750Z 09016KT 18/15 A2971 RMK A01 T01820152  RH  083%=      5-min Rain = 0
KST2 250751Z 09018KT 18/15 A2971 RMK A01 T01800153  RH  084%=      5-min Rain = 0
KST2 250752Z 09018KT 18/15 A297 RMK A01 T01800154  RH  085%=      5-min Rain = 0
KST2 250753Z 09019G24KT 18/16 A297 RMK A01 T01790155  RH  086%=      5-min Rain = 0
KST2 250754Z 10019KT 18/15 A297 RMK A01 T01780154  RH  086%=      5-min Rain = 0
KST2 250755Z 10019KT 18/15 A297 RMK A01 T01780154  RH  086%=      5-min Rain = 0
KST2 250756Z 10021KT 18/15 A2969 RMK A01 T01780154  RH  086%=      5-min Rain = 0
KST2 250757Z 10019KT 18/15 A2969 RMK A01 T01780154  RH  086%=      5-min Rain = 0
KST2 250758Z 10017KT 18/15 A297 RMK A01 T01780153  RH  085%=      5-min Rain = 0
KST2 250759Z 10015KT 18/15 A297 RMK A01 T01780153  RH  085%=      5-min Rain = 0
KST2 250800Z 10012KT 18/15 A297 RMK A01 T01790153  RH  085%=      5-min Rain = 0
KST2 250801Z 09009KT 18/15 A297 RMK A01 T01780153  RH  085%=      5-min Rain = 0
KST2 250802Z 06007KT 18/15 A2971 RMK A01 T01780153  RH  085%=      5-min Rain = 0
KST2 250803Z 03009KT 18/15 A2973 RMK A01 T01790154  RH  085%=      5-min Rain = 0
KST2 250804Z 02009KT 18/16 A2974 RMK A01 T01790155  RH  086%=      5-min Rain = 0
KST2 250805Z 33006KT 18/16 A2975 RMK A01 T01790156  RH  086%=      5-min Rain = 0
KST2 250806Z 28010KT 18/16 A2976 RMK A01 T01790157  RH  087%=      5-min Rain = 0
KST2 250807Z 27015KT 18/16 A2977 RMK A01 T01790159  RH  088%=      5-min Rain = 0
KST2 250808Z 28018KT 18/16 A2977 RMK A01 T01770159  RH  089%=      5-min Rain = 0
KST2 250809Z 26015G20KT 18/16 A2977 RMK A01 T01770156  RH  088%=      5-min Rain = 0
KST2 250810Z 29016G21KT 18/16 A2978 RMK A01 T01770155  RH  087%=      5-min Rain = 0
KST2 250811Z 30011KT 18/15 A2978 RMK A01 T01780154  RH  086%=      5-min Rain = 0
KST2 250812Z 28008KT 18/15 A2979 RMK A01 T01780154  RH  086%=      5-min Rain = 0
KST2 250813Z 27007KT 18/16 A2979 RMK A01 T01780155  RH  086%=      5-min Rain = 0
KST2 250814Z 30006KT 18/15 A2978 RMK A01 T01780152  RH  085%=      5-min Rain = 0
KST2 250815Z 34004KT 18/15 A2978 RMK A01 T01790150  RH  083%=      5-min Rain = 0
KST2 250816Z 33003KT 18/15 A2977 RMK A01 T01800148  RH  081%=      5-min Rain = 0
KST2 250817Z 33003KT 18/15 A2977 RMK A01 T01820147  RH  080%=      5-min Rain = 0
KST2 250818Z 33004KT 18/15 A2977 RMK A01 T01840148  RH  080%=      5-min Rain = 0
KST2 250819Z 31006KT 18/15 A2977 RMK A01 T01840151  RH  081%=      5-min Rain = 0
KST2 250820Z 31007KT 18/15 A2978 RMK A01 T01840153  RH  082%=      5-min Rain = 0
KST2 250821Z 30008KT 18/15 A2978 RMK A01 T01830152  RH  082%=      5-min Rain = 0
KST2 250822Z 28008KT 18/15 A2978 RMK A01 T01820150  RH  082%=      5-min Rain = 0
KST2 250823Z 29010KT 18/15 A2978 RMK A01 T01820152  RH  083%=      5-min Rain = 0
KST2 250824Z 28008KT 18/15 A2979 RMK A01 T01820153  RH  083%=      5-min Rain = 0
KST2 250825Z 28010KT 18/15 A2979 RMK A01 T01810153  RH  084%=      5-min Rain = 0
KST2 250826Z 26008KT 18/15 A2979 RMK A01 T01810152  RH  083%=      5-min Rain = 0
KST2 250827Z 25010KT 18/15 A2979 RMK A01 T01810152  RH  083%=      5-min Rain = 0
KST2 250828Z 25008KT 18/15 A2979 RMK A01 T01810153  RH  083%=      5-min Rain = 0
KST2 250829Z 26008KT 18/15 A2978 RMK A01 T01810153  RH  083%=      5-min Rain = 0
KST2 250830Z 25008KT 18/15 A2978 RMK A01 T01810153  RH  084%=      5-min Rain = 0
KST2 250831Z 26007KT 18/15 A2978 RMK A01 T01810154  RH  084%=      5-min Rain = 0
KST2 250832Z 28005KT 18/15 A2978 RMK A01 T01800154  RH  085%=      5-min Rain = 0
KST2 250833Z 31005KT 18/16 A2978 RMK A01 T01800155  RH  085%=      5-min Rain = 0
KST2 250834Z 33006KT 18/16 A2978 RMK A01 T01790155  RH  086%=      5-min Rain = 0
KST2 250835Z 33006KT 18/16 A2979 RMK A01 T01790156  RH  086%=      5-min Rain = 0
KST2 250836Z 33007KT 18/16 A2979 RMK A01 T01790156  RH  087%=      5-min Rain = 0
KST2 250837Z 33007KT 18/16 A2979 RMK A01 T01780156  RH  087%=      5-min Rain = 0
KST2 250838Z 32006KT 18/16 A2979 RMK A01 T01780155  RH  087%=      5-min Rain = 0
KST2 250839Z 31006KT 18/16 A2979 RMK A01 T01780155  RH  087%=      5-min Rain = 0
KST2 250840Z 31007KT 18/16 A2979 RMK A01 T01770155  RH  087%=      5-min Rain = 0
KST2 250841Z 30006KT 18/16 A2979 RMK A01 T01770155  RH  087%=      5-min Rain = 0
KST2 250842Z 30006KT 18/16 A2979 RMK A01 T01770156  RH  087%=      5-min Rain = 0
KST2 250843Z 30006KT 18/16 A2979 RMK A01 T01770156  RH  088%=      5-min Rain = 0
KST2 250844Z 29006KT 18/16 A2978 RMK A01 T01770157  RH  088%=      5-min Rain = 0
KST2 250845Z 32003KT 18/16 A2978 RMK A01 T01760157  RH  089%=      5-min Rain = 0
KST2 250846Z 34002KT 18/16 A2978 RMK A01 T01760158  RH  089%=      5-min Rain = 0
KST2 250847Z 00002KT 18/16 A2977 RMK A01 T01750157  RH  089%=      5-min Rain = 0
KST2 250848Z 02002KT 18/16 A2977 RMK A01 T01750157  RH  089%=      5-min Rain = 0
KST2 250849Z 35003KT 18/16 A2978 RMK A01 T01760158  RH  089%=      5-min Rain = 0
KST2 250850Z 27003KT 18/16 A2978 RMK A01 T01750158  RH  089%=      5-min Rain = 0
KST2 250851Z 27006KT 18/16 A2978 RMK A01 T01750157  RH  089%=      5-min Rain = 0
KST2 250852Z 28006KT 18/16 A2978 RMK A01 T01750157  RH  089%=      5-min Rain = 0
KST2 250853Z 30006KT 18/16 A2978 RMK A01 T01750156  RH  089%=      5-min Rain = 0
KST2 250854Z 31008KT 17/16 A2978 RMK A01 T01740156  RH  089%=      5-min Rain = 0
KST2 250855Z 30008KT 18/16 A2978 RMK A01 T01750156  RH  089%=      5-min Rain = 0
KST2 250856Z 32007KT 18/16 A2978 RMK A01 T01750156  RH  089%=      5-min Rain = 0
KST2 250857Z 34006KT 18/16 A2978 RMK A01 T01750156  RH  089%=      5-min Rain = 0
KST2 250858Z 00005KT 17/16 A2978 RMK A01 T01740155  RH  088%=      5-min Rain = 0
KST2 250859Z 01004KT 17/15 A2978 RMK A01 T01740154  RH  088%=      5-min Rain = 0
KST2 250900Z 35004KT 18/15 A2978 RMK A01 T01750154  RH  088%=      5-min Rain = 0
KST2 250901Z 34003KT 18/15 A2978 RMK A01 T01750154  RH  087%=      5-min Rain = 0
KST2 250902Z 30004KT 18/15 A2978 RMK A01 T01760154  RH  087%=      5-min Rain = 0
KST2 250903Z 31006KT 18/16 A2978 RMK A01 T01760155  RH  088%=      5-min Rain = 0
KST2 250904Z 31007KT 18/16 A2978 RMK A01 T01750156  RH  088%=      5-min Rain = 0
KST2 250905Z 32007KT 18/16 A2978 RMK A01 T01760157  RH  089%=      5-min Rain = 0
KST2 250906Z 31007KT 18/16 A2978 RMK A01 T01750157  RH  089%=      5-min Rain = 0
KST2 250907Z 29007KT 18/16 A2978 RMK A01 T01750157  RH  089%=      5-min Rain = 0
KST2 250908Z 29005KT 18/16 A2978 RMK A01 T01750158  RH  090%=      5-min Rain = 0
KST2 250909Z 27004KT 17/16 A2978 RMK A01 T01740158  RH  090%=      5-min Rain = 0
KST2 250910Z 26004KT 17/16 A2978 RMK A01 T01740158  RH  090%=      5-min Rain = 0
KST2 250911Z 26005KT 17/16 A2978 RMK A01 T01740156  RH  089%=      5-min Rain = 0
KST2 250912Z 27004KT 17/16 A2978 RMK A01 T01740155  RH  089%=      5-min Rain = 0
KST2 250913Z 26005KT 17/16 A2978 RMK A01 T01740156  RH  089%=      5-min Rain = 0
KST2 250914Z 26006KT 17/16 A2979 RMK A01 T01740155  RH  089%=      5-min Rain = 0
KST2 250915Z 27003KT 17/15 A2979 RMK A01 T01740154  RH  088%=      5-min Rain = 0
KST2 250916Z 28005KT 18/15 A2979 RMK A01 T01750154  RH  088%=      5-min Rain = 0
KST2 250917Z 27004KT 18/16 A2979 RMK A01 T01750155  RH  088%=      5-min Rain = 0
KST2 250918Z 27003KT 18/16 A2978 RMK A01 T01750155  RH  088%=      5-min Rain = 0
KST2 250919Z 29002KT 18/15 A2978 RMK A01 T01750154  RH  088%=      5-min Rain = 0
KST2 250920Z 29002KT 18/16 A2978 RMK A01 T01750155  RH  088%=      5-min Rain = 0
KST2 250921Z 30002KT 18/15 A2977 RMK A01 T01750154  RH  088%=      5-min Rain = 0
KST2 250922Z 29004KT 18/15 A2977 RMK A01 T01750154  RH  088%=      5-min Rain = 0
KST2 250923Z 29005KT 18/15 A2977 RMK A01 T01750154  RH  087%=      5-min Rain = 0
KST2 250924Z 29005KT 18/15 A2978 RMK A01 T01750154  RH  088%=      5-min Rain = 0
KST2 250925Z 30006KT 17/15 A2978 RMK A01 T01740154  RH  088%=      5-min Rain = 0
KST2 250926Z 31007KT 17/16 A2978 RMK A01 T01740155  RH  088%=      5-min Rain = 0
KST2 250927Z 31006KT 17/16 A2978 RMK A01 T01740155  RH  089%=      5-min Rain = 0
KST2 250928Z 30005KT 17/16 A2978 RMK A01 T01740155  RH  089%=      5-min Rain = 0
KST2 250929Z 30006KT 17/16 A2978 RMK A01 T01740155  RH  089%=      5-min Rain = 0
KST2 250930Z 30006KT 17/16 A2978 RMK A01 T01740156  RH  089%=      5-min Rain = 0
KST2 250931Z 31006KT 17/16 A2978 RMK A01 T01740155  RH  089%=      5-min Rain = 0
KST2 250932Z 31006KT 17/16 A2978 RMK A01 T01730155  RH  089%=      5-min Rain = 0
KST2 250933Z 31006KT 17/16 A2978 RMK A01 T01730155  RH  089%=      5-min Rain = 0
KST2 250934Z 30006KT 17/16 A2978 RMK A01 T01730156  RH  089%=      5-min Rain = 0
KST2 250935Z 30005KT 17/16 A2978 RMK A01 T01730156  RH  089%=      5-min Rain = 0
KST2 250936Z 29005KT 17/16 A2978 RMK A01 T01730156  RH  090%=      5-min Rain = 0
KST2 250937Z 28005KT 17/16 A2978 RMK A01 T01730156  RH  090%=      5-min Rain = 0
KST2 250938Z 27005KT 17/16 A2978 RMK A01 T01730156  RH  090%=      5-min Rain = 0
KST2 250939Z 27006KT 17/16 A2978 RMK A01 T01720156  RH  090%=      5-min Rain = 0
KST2 250940Z 27006KT 17/16 A2978 RMK A01 T01720156  RH  090%=      5-min Rain = 0
KST2 250941Z 27006KT 17/16 A2978 RMK A01 T01720156  RH  090%=      5-min Rain = 0
KST2 250942Z 27005KT 17/16 A2978 RMK A01 T01720156  RH  090%=      5-min Rain = 0
KST2 250943Z 27005KT 17/16 A2978 RMK A01 T01720156  RH  090%=      5-min Rain = 0
KST2 250944Z 27004KT 17/16 A2978 RMK A01 T01720157  RH  091%=      5-min Rain = 0
KST2 250945Z 27004KT 17/16 A2978 RMK A01 T01720157  RH  091%=      5-min Rain = 0
KST2 250946Z 27004KT 17/16 A2978 RMK A01 T01720157  RH  091%=      5-min Rain = 0
KST2 250947Z 26005KT 17/16 A2977 RMK A01 T01730157  RH  091%=      5-min Rain = 0
KST2 250948Z 26006KT 17/16 A2977 RMK A01 T01720157  RH  091%=      5-min Rain = 0
KST2 250949Z 26006KT 17/16 A2977 RMK A01 T01730158  RH  091%=      5-min Rain = 0
KST2 250950Z 26006KT 17/16 A2977 RMK A01 T01720157  RH  091%=      5-min Rain = 0
KST2 250951Z 26006KT 17/16 A2977 RMK A01 T01730158  RH  091%=      5-min Rain = 0
KST2 250952Z 26005KT 17/16 A2977 RMK A01 T01730158  RH  091%=      5-min Rain = 0
KST2 250953Z 25006KT 17/16 A2977 RMK A01 T01730158  RH  091%=      5-min Rain = 0
KST2 250954Z 25006KT 17/16 A2977 RMK A01 T01730159  RH  091%=      5-min Rain = 0
KST2 250955Z 25005KT 17/16 A2978 RMK A01 T01730158  RH  091%=      5-min Rain = 0
KST2 250956Z 26005KT 17/16 A2978 RMK A01 T01730159  RH  091%=      5-min Rain = 0
KST2 250957Z 26005KT 17/16 A2978 RMK A01 T01730159  RH  091%=      5-min Rain = 0
KST2 250958Z 26005KT 17/16 A2977 RMK A01 T01730159  RH  091%=      5-min Rain = 0
KST2 250959Z 26005KT 17/16 A2977 RMK A01 T01730159  RH  092%=      5-min Rain = 0
KST2 251000Z 26006KT 17/16 A2977 RMK A01 T01730159  RH  092%=      5-min Rain = 0
KST2 251001Z 26006KT 17/16 A2977 RMK A01 T01730159  RH  092%=      5-min Rain = 0
KST2 251002Z 25007KT 17/16 A2977 RMK A01 T01730159  RH  092%=      5-min Rain = 0
KST2 251003Z 25007KT 17/16 A2977 RMK A01 T01730160  RH  092%=      5-min Rain = 0
KST2 251004Z 24007KT 17/16 A2977 RMK A01 T01730160  RH  092%=      5-min Rain = 0
KST2 251005Z 24007KT 17/16 A2977 RMK A01 T01730160  RH  092%=      5-min Rain = 0
KST2 251006Z 24007KT 17/16 A2977 RMK A01 T01730160  RH  092%=      5-min Rain = 0
KST2 251007Z 24007KT 17/16 A2977 RMK A01 T01730160  RH  092%=      5-min Rain = 0
KST2 251008Z 24007KT 17/16 A2977 RMK A01 T01730160  RH  092%=      5-min Rain = 0
KST2 251009Z 24005KT 17/16 A2977 RMK A01 T01730160  RH  092%=      5-min Rain = 0
KST2 251010Z 25006KT 17/16 A2977 RMK A01 T01730160  RH  092%=      5-min Rain = 0
KST2 251011Z 25005KT 17/16 A2977 RMK A01 T01730160  RH  092%=      5-min Rain = 0
KST2 251012Z 25005KT 17/16 A2977 RMK A01 T01730160  RH  092%=      5-min Rain = 0
KST2 251013Z 25005KT 17/16 A2977 RMK A01 T01730160  RH  092%=      5-min Rain = 0
KST2 251014Z 25006KT 17/16 A2977 RMK A01 T01730160  RH  092%=      5-min Rain = 0
KST2 251015Z 25006KT 17/16 A2976 RMK A01 T01730160  RH  092%=      5-min Rain = 0
KST2 251016Z 25005KT 17/16 A2976 RMK A01 T01730159  RH  092%=      5-min Rain = 0
KST2 251017Z 26004KT 17/16 A2976 RMK A01 T01730159  RH  092%=      5-min Rain = 0
KST2 251018Z 28003KT 17/16 A2976 RMK A01 T01730159  RH  092%=      5-min Rain = 0
KST2 251019Z 31003KT 17/16 A2976 RMK A01 T01730159  RH  092%=      5-min Rain = 0
KST2 251020Z 35006KT 17/16 A2977 RMK A01 T01730160  RH  092%=      5-min Rain = 0
KST2 251021Z 01009KT 17/16 A2977 RMK A01 T01730160  RH  092%=      5-min Rain = 0
KST2 251022Z 01009KT 17/16 A2977 RMK A01 T01730160  RH  092%=      5-min Rain = 0
KST2 251023Z 01010KT 17/16 A2977 RMK A01 T01720159  RH  092%=      5-min Rain = 0
KST2 251024Z 35008KT 17/16 A2977 RMK A01 T01720158  RH  091%=      5-min Rain = 0
KST2 251025Z 34007KT 17/16 A2977 RMK A01 T01720157  RH  090%=      5-min Rain = 0
KST2 251026Z 32005KT 17/16 A2977 RMK A01 T01730157  RH  090%=      5-min Rain = 0
KST2 251027Z 33005KT 17/16 A2977 RMK A01 T01730157  RH  090%=      5-min Rain = 0
KST2 251028Z 33005KT 17/16 A2977 RMK A01 T01730157  RH  090%=      5-min Rain = 0
KST2 251029Z 32004KT 17/16 A2977 RMK A01 T01730157  RH  090%=      5-min Rain = 0
KST2 251030Z 31006KT 17/16 A2977 RMK A01 T01730157  RH  090%=      5-min Rain = 0
KST2 251031Z 31005KT 17/16 A2978 RMK A01 T01730157  RH  090%=      5-min Rain = 0
KST2 251032Z 31004KT 17/16 A2978 RMK A01 T01730157  RH  090%=      5-min Rain = 0
KST2 251033Z 31006KT 17/16 A2978 RMK A01 T01730158  RH  090%=      5-min Rain = 0
KST2 251034Z 32006KT 17/16 A2978 RMK A01 T01730157  RH  090%=      5-min Rain = 0
KST2 251035Z 33005KT 17/16 A2978 RMK A01 T01730157  RH  090%=      5-min Rain = 0
KST2 251036Z 32004KT 17/16 A2978 RMK A01 T01730157  RH  090%=      5-min Rain = 0
KST2 251037Z 34004KT 17/16 A2978 RMK A01 T01730157  RH  090%=      5-min Rain = 0
KST2 251038Z 34005KT 17/16 A2978 RMK A01 T01730157  RH  090%=      5-min Rain = 0
KST2 251039Z 35005KT 17/16 A2978 RMK A01 T01730157  RH  090%=      5-min Rain = 0
KST2 251040Z 36005KT 17/16 A2978 RMK A01 T01730156  RH  090%=      5-min Rain = 0
KST2 251041Z 36006KT 17/16 A2978 RMK A01 T01730156  RH  090%=      5-min Rain = 0
KST2 251042Z 36007KT 17/16 A2979 RMK A01 T01730157  RH  090%=      5-min Rain = 0
KST2 251043Z 35008KT 17/16 A2979 RMK A01 T01730158  RH  091%=      5-min Rain = 0
KST2 251044Z 36008KT 17/16 A2979 RMK A01 T01730157  RH  091%=      5-min Rain = 0
KST2 251045Z 36009KT 17/16 A2979 RMK A01 T01720156  RH  090%=      5-min Rain = 0
KST2 251046Z 35008KT 17/15 A2979 RMK A01 T01720154  RH  089%=      5-min Rain = 0
KST2 251047Z 34008KT 17/15 A2979 RMK A01 T01710154  RH  089%=      5-min Rain = 0
KST2 251048Z 34008KT 17/15 A2979 RMK A01 T01710154  RH  089%=      5-min Rain = 0
KST2 251049Z 34008KT 17/15 A2979 RMK A01 T01720154  RH  090%=      5-min Rain = 0
KST2 251050Z 33008KT 17/15 A2979 RMK A01 T01710154  RH  090%=      5-min Rain = 0
KST2 251051Z 34008KT 17/15 A2979 RMK A01 T01710154  RH  090%=      5-min Rain = 0
KST2 251052Z 33008KT 17/16 A2979 RMK A01 T01710155  RH  090%=      5-min Rain = 0
KST2 251053Z 34009KT 17/15 A2979 RMK A01 T01710154  RH  090%=      5-min Rain = 0
KST2 251054Z 34009KT 17/15 A2979 RMK A01 T01710154  RH  090%=      5-min Rain = 0
KST2 251055Z 34009KT 17/15 A2979 RMK A01 T01710154  RH  090%=      5-min Rain = 0
KST2 251056Z 34010KT 17/15 A2979 RMK A01 T01710154  RH  089%=      5-min Rain = 0
KST2 251057Z 34009KT 17/15 A2979 RMK A01 T01710153  RH  089%=      5-min Rain = 0
KST2 251058Z 34009KT 17/15 A2979 RMK A01 T01710153  RH  089%=      5-min Rain = 0
KST2 251059Z 34009KT 17/15 A2979 RMK A01 T01710153  RH  089%=      5-min Rain = 0
KST2 251100Z 34009KT 17/15 A2979 RMK A01 T01710153  RH  089%=      5-min Rain = 0
KST2 251101Z 34008KT 17/15 A2979 RMK A01 T01710153  RH  089%=      5-min Rain = 0
KST2 251102Z 34009KT 17/15 A298 RMK A01 T01720153  RH  089%=      5-min Rain = 0
KST2 251103Z 33006KT 17/15 A298 RMK A01 T01710153  RH  089%=      5-min Rain = 0
KST2 251104Z 33007KT 17/15 A298 RMK A01 T01720154  RH  089%=      5-min Rain = 0
KST2 251105Z 33006KT 17/15 A298 RMK A01 T01710154  RH  089%=      5-min Rain = 0
KST2 251106Z 33006KT 17/15 A298 RMK A01 T01710153  RH  089%=      5-min Rain = 0
KST2 251107Z 33006KT 17/15 A298 RMK A01 T01710153  RH  089%=      5-min Rain = 0
KST2 251108Z 33005KT 17/15 A298 RMK A01 T01710153  RH  089%=      5-min Rain = 0
KST2 251109Z 32005KT 17/15 A298 RMK A01 T01710153  RH  089%=      5-min Rain = 0
KST2 251110Z 32005KT 17/15 A2981 RMK A01 T01710153  RH  089%=      5-min Rain = 0
KST2 251111Z 32005KT 17/15 A2981 RMK A01 T01710153  RH  089%=      5-min Rain = 0
KST2 251112Z 31004KT 17/15 A2981 RMK A01 T01710153  RH  089%=      5-min Rain = 0
KST2 251113Z 31005KT 17/15 A2981 RMK A01 T01710153  RH  089%=      5-min Rain = 0
KST2 251114Z 30004KT 17/15 A2981 RMK A01 T01710154  RH  089%=      5-min Rain = 0
KST2 251115Z 29004KT 17/15 A2982 RMK A01 T01710153  RH  089%=      5-min Rain = 0
KST2 251116Z 29004KT 17/15 A2982 RMK A01 T01710154  RH  090%=      5-min Rain = 0
KST2 251117Z 29003KT 17/15 A2982 RMK A01 T01710154  RH  090%=      5-min Rain = 0
KST2 251118Z 29003KT 17/16 A2982 RMK A01 T01710155  RH  090%=      5-min Rain = 0
KST2 251119Z 29004KT 17/15 A2982 RMK A01 T01710154  RH  090%=      5-min Rain = 0
KST2 251120Z 29004KT 17/16 A2982 RMK A01 T01710155  RH  090%=      5-min Rain = 0
KST2 251121Z 29003KT 17/16 A2982 RMK A01 T01710155  RH  090%=      5-min Rain = 0
KST2 251122Z 29003KT 17/16 A2982 RMK A01 T01710155  RH  090%=      5-min Rain = 0
KST2 251123Z 29005KT 17/16 A2982 RMK A01 T01710156  RH  091%=      5-min Rain = 0
KST2 251124Z 30004KT 17/16 A2983 RMK A01 T01710156  RH  091%=      5-min Rain = 0
KST2 251125Z 31004KT 17/16 A2983 RMK A01 T01710156  RH  091%=      5-min Rain = 0
KST2 251126Z 34005KT 17/16 A2983 RMK A01 T01710156  RH  091%=      5-min Rain = 0
KST2 251127Z 00007KT 17/16 A2983 RMK A01 T01710157  RH  091%=      5-min Rain = 0
KST2 251128Z 01009KT 17/16 A2983 RMK A01 T01710158  RH  092%=      5-min Rain = 0
KST2 251129Z 35007KT 17/16 A2983 RMK A01 T01710158  RH  092%=      5-min Rain = 0
KST2 251130Z 32006KT 17/16 A2983 RMK A01 T01710158  RH  092%=      5-min Rain = 0
KST2 251131Z 30006KT 17/16 A2983 RMK A01 T01710158  RH  092%=      5-min Rain = 0
KST2 251132Z 30006KT 17/16 A2983 RMK A01 T01710157  RH  092%=      5-min Rain = 0
KST2 251133Z 31006KT 17/16 A2983 RMK A01 T01700157  RH  092%=      5-min Rain = 0
KST2 251134Z 32005KT 17/16 A2983 RMK A01 T01710158  RH  092%=      5-min Rain = 0
KST2 251135Z 34005KT 17/16 A2983 RMK A01 T01700158  RH  092%=      5-min Rain = 0
KST2 251136Z 35005KT 17/16 A2983 RMK A01 T01710158  RH  092%=      5-min Rain = 0
KST2 251137Z 01006KT 17/16 A2984 RMK A01 T01700158  RH  092%=      5-min Rain = 0
KST2 251138Z 01007KT 17/16 A2984 RMK A01 T01700158  RH  092%=      5-min Rain = 0
KST2 251139Z 01006KT 17/16 A2984 RMK A01 T01700158  RH  092%=      5-min Rain = 0
KST2 251140Z 00006KT 17/16 A2984 RMK A01 T01700157  RH  092%=      5-min Rain = 0
KST2 251141Z 00005KT 17/16 A2985 RMK A01 T01700158  RH  092%=      5-min Rain = 0
KST2 251142Z 36005KT 17/16 A2985 RMK A01 T01700159  RH  093%=      5-min Rain = 0
KST2 251143Z 35004KT 17/16 A2985 RMK A01 T01700158  RH  093%=      5-min Rain = 0
KST2 251144Z 00004KT 17/16 A2985 RMK A01 T01700158  RH  093%=      5-min Rain = 0
KST2 251145Z 01005KT 17/16 A2985 RMK A01 T01700158  RH  093%=      5-min Rain = 0
KST2 251146Z 01006KT 17/16 A2985 RMK A01 T01700158  RH  093%=      5-min Rain = 0
KST2 251147Z 01006KT 17/16 A2986 RMK A01 T01700159  RH  093%=      5-min Rain = 0
KST2 251148Z 01005KT 17/16 A2986 RMK A01 T01710159  RH  093%=      5-min Rain = 0
KST2 251149Z 01005KT 17/16 A2986 RMK A01 T01700159  RH  093%=      5-min Rain = 0
KST2 251150Z 01004KT 17/16 A2986 RMK A01 T01700159  RH  093%=      5-min Rain = 0
KST2 251151Z 01004KT 17/16 A2986 RMK A01 T01700159  RH  093%=      5-min Rain = 0
KST2 251152Z 01004KT 17/16 A2986 RMK A01 T01700159  RH  093%=      5-min Rain = 0
KST2 251153Z 01005KT 17/16 A2986 RMK A01 T01700159  RH  093%=      5-min Rain = 0
KST2 251154Z 01005KT 17/16 A2986 RMK A01 T01700160  RH  093%=      5-min Rain = 0
KST2 251155Z 01004KT 17/16 A2986 RMK A01 T01700160  RH  093%=      5-min Rain = 0
KST2 251156Z 02004KT 17/16 A2986 RMK A01 T01710160  RH  093%=      5-min Rain = 0
KST2 251157Z 02003KT 17/16 A2986 RMK A01 T01700160  RH  094%=      5-min Rain = 0
KST2 251158Z 03003KT 17/16 A2986 RMK A01 T01700160  RH  093%=      5-min Rain = 0
KST2 251159Z 03002KT 17/16 A2986 RMK A01 T01700160  RH  093%=      5-min Rain = 0
KST2 251200Z 01002KT 17/16 A2986 RMK A01 T01700160  RH  093%=      5-min Rain = 0
KST2 251201Z 00001KT 17/16 A2987 RMK A01 T01710160  RH  093%=      5-min Rain = 0
KST2 251202Z 00001KT 17/16 A2987 RMK A01 T01700160  RH  093%=      5-min Rain = 0
KST2 251203Z 00002KT 17/16 A2987 RMK A01 T01700160  RH  093%=      5-min Rain = 0
KST2 251204Z 36002KT 17/16 A2987 RMK A01 T01700160  RH  093%=      5-min Rain = 0
KST2 251205Z 34002KT 17/16 A2987 RMK A01 T01700159  RH  093%=      5-min Rain = 0
KST2 251206Z 36003KT 17/16 A2987 RMK A01 T01710160  RH  093%=      5-min Rain = 0
KST2 251207Z 00002KT 17/16 A2987 RMK A01 T01710160  RH  093%=      5-min Rain = 0
KST2 251208Z 01002KT 17/16 A2987 RMK A01 T01710161  RH  094%=      5-min Rain = 0
KST2 251209Z 00002KT 17/16 A2987 RMK A01 T01710161  RH  094%=      5-min Rain = 0
KST2 251210Z 00002KT 17/16 A2987 RMK A01 T01710160  RH  094%=      5-min Rain = 0
KST2 251211Z 00003KT 17/16 A2987 RMK A01 T01710161  RH  094%=      5-min Rain = 0
KST2 251212Z 00003KT 17/16 A2987 RMK A01 T01710160  RH  094%=      5-min Rain = 0
KST2 251213Z 00002KT 17/16 A2987 RMK A01 T01710160  RH  094%=      5-min Rain = 0
KST2 251214Z 01002KT 17/16 A2987 RMK A01 T01710161  RH  094%=      5-min Rain = 0
KST2 251215Z 01003KT 17/16 A2987 RMK A01 T01710161  RH  094%=      5-min Rain = 0
KST2 251216Z 01002KT 17/16 A2987 RMK A01 T01710161  RH  094%=      5-min Rain = 0
KST2 251217Z 01003KT 17/16 A2987 RMK A01 T01710161  RH  094%=      5-min Rain = 0
KST2 251218Z 01003KT 17/16 A2987 RMK A01 T01710161  RH  094%=      5-min Rain = 0
KST2 251219Z 01003KT 17/16 A2987 RMK A01 T01710162  RH  094%=      5-min Rain = 0
KST2 251220Z 00002KT 17/16 A2987 RMK A01 T01710162  RH  094%=      5-min Rain = 0
KST2 251221Z 00002KT 17/16 A2987 RMK A01 T01710161  RH  094%=      5-min Rain = 0
KST2 251222Z 00002KT 17/16 A2987 RMK A01 T01710162  RH  094%=      5-min Rain = 0
KST2 251223Z 00002KT 17/16 A2987 RMK A01 T01720161  RH  094%=      5-min Rain = 0
KST2 251224Z 00002KT 17/16 A2987 RMK A01 T01710162  RH  094%=      5-min Rain = 0
KST2 251225Z 00002KT 17/16 A2987 RMK A01 T01720162  RH  094%=      5-min Rain = 0
KST2 251226Z 00002KT 17/16 A2987 RMK A01 T01710161  RH  094%=      5-min Rain = 0
KST2 251227Z 00002KT 17/16 A2986 RMK A01 T01710162  RH  094%=      5-min Rain = 0
KST2 251228Z 00002KT 17/16 A2986 RMK A01 T01710161  RH  094%=      5-min Rain = 0
KST2 251229Z 01003KT 17/16 A2986 RMK A01 T01710162  RH  094%=      5-min Rain = 0
KST2 251230Z 02003KT 17/16 A2986 RMK A01 T01710161  RH  094%=      5-min Rain = 0
KST2 251231Z 02004KT 17/16 A2986 RMK A01 T01710161  RH  094%=      5-min Rain = 0
KST2 251232Z 02004KT 17/16 A2986 RMK A01 T01720162  RH  094%=      5-min Rain = 0
KST2 251233Z 03004KT 17/16 A2986 RMK A01 T01720162  RH  094%=      5-min Rain = 0
KST2 251234Z 03004KT 17/16 A2986 RMK A01 T01720163  RH  094%=      5-min Rain = 0
KST2 251235Z 02004KT 17/16 A2986 RMK A01 T01720163  RH  094%=      5-min Rain = 0
KST2 251236Z 02004KT 17/16 A2986 RMK A01 T01730163  RH  094%=      5-min Rain = 0
KST2 251237Z 02004KT 17/16 A2986 RMK A01 T01720163  RH  094%=      5-min Rain = 0
KST2 251238Z 01004KT 17/16 A2986 RMK A01 T01720163  RH  094%=      5-min Rain = 0
KST2 251239Z 01004KT 17/16 A2986 RMK A01 T01730163  RH  094%=      5-min Rain = 0
KST2 251240Z 01004KT 17/16 A2986 RMK A01 T01730164  RH  094%=      5-min Rain = 0
KST2 251241Z 00004KT 17/16 A2986 RMK A01 T01730163  RH  094%=      5-min Rain = 0
KST2 251242Z 01004KT 17/16 A2986 RMK A01 T01730164  RH  094%=      5-min Rain = 0
KST2 251243Z 01003KT 17/16 A2986 RMK A01 T01730163  RH  094%=      5-min Rain = 0
KST2 251244Z 02003KT 17/16 A2987 RMK A01 T01730164  RH  094%=      5-min Rain = 0
KST2 251245Z 03004KT 17/16 A2987 RMK A01 T01730164  RH  094%=      5-min Rain = 0
KST2 251246Z 05006KT 17/16 A2987 RMK A01 T01730164  RH  094%=      5-min Rain = 0
KST2 251247Z 05004KT 17/16 A2987 RMK A01 T01740164  RH  094%=      5-min Rain = 0
KST2 251248Z 05004KT 17/16 A2987 RMK A01 T01740164  RH  094%=      5-min Rain = 0
KST2 251249Z 05004KT 17/16 A2987 RMK A01 T01740164  RH  094%=      5-min Rain = 0
KST2 251250Z 05004KT 17/16 A2987 RMK A01 T01740164  RH  094%=      5-min Rain = 0
KST2 251251Z 05003KT 17/16 A2987 RMK A01 T01740164  RH  094%=      5-min Rain = 0
KST2 251252Z 06003KT 17/16 A2987 RMK A01 T01740164  RH  094%=      5-min Rain = 0
KST2 251253Z 06003KT 17/16 A2987 RMK A01 T01740164  RH  094%=      5-min Rain = 0
KST2 251254Z 06002KT 17/17 A2987 RMK A01 T01740165  RH  094%=      5-min Rain = 0
KST2 251255Z 06000KT 17/16 A2987 RMK A01 T01740164  RH  094%=      5-min Rain = 0
KST2 251256Z 00000KT 17/16 A2987 RMK A01 T01740164  RH  094%=      5-min Rain = 0
KST2 251257Z 06000KT 17/16 A2987 RMK A01 T01740164  RH  094%=      5-min Rain = 0
KST2 251258Z 06000KT 17/16 A2987 RMK A01 T01740164  RH  094%=      5-min Rain = 0
KST2 251259Z 05001KT 17/16 A2987 RMK A01 T01740163  RH  094%=      5-min Rain = 0
KST2 251300Z 26001KT 17/16 A2987 RMK A01 T01740164  RH  094%=      5-min Rain = 0
KST2 251301Z 26001KT 17/16 A2987 RMK A01 T01730163  RH  094%=      5-min Rain = 0
KST2 251302Z 28002KT 17/16 A2987 RMK A01 T01740164  RH  094%=      5-min Rain = 0
KST2 251303Z 28002KT 17/17 A2987 RMK A01 T01740165  RH  094%=      5-min Rain = 0
KST2 251304Z 30002KT 17/17 A2987 RMK A01 T01740165  RH  094%=      5-min Rain = 0
KST2 251305Z 33003KT 17/17 A2988 RMK A01 T01740165  RH  094%=      5-min Rain = 0
KST2 251306Z 35005KT 18/17 A2988 RMK A01 T01750166  RH  094%=      5-min Rain = 0
KST2 251307Z 35006KT 18/17 A2988 RMK A01 T01750166  RH  094%=      5-min Rain = 0
KST2 251308Z 00007KT 18/17 A2988 RMK A01 T01750166  RH  094%=      5-min Rain = 0
KST2 251309Z 00010KT 18/17 A2989 RMK A01 T01760167  RH  095%=      5-min Rain = 0
KST2 251310Z 00011KT 18/17 A2989 RMK A01 T01760168  RH  095%=      5-min Rain = 0
KST2 251311Z 00010KT 18/17 A2989 RMK A01 T01760168  RH  095%=      5-min Rain = 0
KST2 251312Z 35010KT 18/17 A2989 RMK A01 T01760167  RH  094%=      5-min Rain = 0
KST2 251313Z 35011KT 18/17 A2989 RMK A01 T01760166  RH  094%=      5-min Rain = 0
KST2 251314Z 35012KT 18/17 A2989 RMK A01 T01750165  RH  094%=      5-min Rain = 0
KST2 251315Z 35011KT 17/16 A2989 RMK A01 T01740164  RH  094%=      5-min Rain = 0
KST2 251316Z 35010KT 17/16 A2989 RMK A01 T01740164  RH  094%=      5-min Rain = 0
KST2 251317Z 35010KT 17/16 A2989 RMK A01 T01740164  RH  094%=      5-min Rain = 0
KST2 251318Z 35008KT 17/17 A2989 RMK A01 T01740165  RH  094%=      5-min Rain = 0
KST2 251319Z 35008KT 17/17 A2989 RMK A01 T01740165  RH  094%=      5-min Rain = 0
KST2 251320Z 36011KT 17/16 A2989 RMK A01 T01740164  RH  094%=      5-min Rain = 0
KST2 251321Z 36011KT 17/16 A2989 RMK A01 T01740163  RH  094%=      5-min Rain = 0
KST2 251322Z 36012KT 17/16 A2989 RMK A01 T01740163  RH  093%=      5-min Rain = 0
KST2 251323Z 36011KT 17/16 A2989 RMK A01 T01730162  RH  093%=      5-min Rain = 0
KST2 251324Z 36012KT 17/16 A2989 RMK A01 T01730162  RH  093%=      5-min Rain = 0
KST2 251325Z 36011KT 17/16 A2989 RMK A01 T01730161  RH  093%=      5-min Rain = 0
KST2 251326Z 35011KT 17/16 A2989 RMK A01 T01740162  RH  093%=      5-min Rain = 0
KST2 251327Z 36011KT 17/16 A2989 RMK A01 T01730161  RH  092%=      5-min Rain = 0
KST2 251328Z 35011KT 17/16 A2989 RMK A01 T01730160  RH  092%=      5-min Rain = 0
KST2 251329Z 35011KT 17/16 A2989 RMK A01 T01730160  RH  092%=      5-min Rain = 0
KST2 251330Z 35012KT 17/16 A2989 RMK A01 T01740160  RH  092%=      5-min Rain = 0
KST2 251331Z 35011KT 17/16 A2988 RMK A01 T01730159  RH  091%=      5-min Rain = 0
KST2 251332Z 35010KT 17/16 A2988 RMK A01 T01730159  RH  091%=      5-min Rain = 0
KST2 251333Z 35011KT 17/16 A2988 RMK A01 T01730158  RH  091%=      5-min Rain = 0
KST2 251334Z 35010KT 17/16 A2988 RMK A01 T01730158  RH  091%=      5-min Rain = 0
KST2 251335Z 35010KT 17/16 A2988 RMK A01 T01730159  RH  091%=      5-min Rain = 0
KST2 251336Z 35010KT 17/16 A2988 RMK A01 T01730159  RH  091%=      5-min Rain = 0
KST2 251337Z 36010KT 17/16 A2988 RMK A01 T01740159  RH  091%=      5-min Rain = 0
KST2 251338Z 00010KT 17/16 A2988 RMK A01 T01740159  RH  091%=      5-min Rain = 0
KST2 251339Z 00011KT 17/16 A2988 RMK A01 T01740158  RH  090%=      5-min Rain = 0
KST2 251340Z 36011KT 17/16 A2988 RMK A01 T01740159  RH  091%=      5-min Rain = 0
KST2 251341Z 36012KT 18/16 A2989 RMK A01 T01750159  RH  090%=      5-min Rain = 0
KST2 251342Z 36012KT 18/16 A2989 RMK A01 T01750157  RH  090%=      5-min Rain = 0
KST2 251343Z 35013KT 17/16 A2989 RMK A01 T01740156  RH  089%=      5-min Rain = 0
KST2 251344Z 35012KT 17/16 A2989 RMK A01 T01740156  RH  089%=      5-min Rain = 0
KST2 251345Z 35012KT 17/16 A2989 RMK A01 T01740156  RH  089%=      5-min Rain = 0
KST2 251346Z 36013KT 17/16 A2989 RMK A01 T01740155  RH  088%=      5-min Rain = 0
KST2 251347Z 35010KT 18/16 A2989 RMK A01 T01750156  RH  089%=      5-min Rain = 0
KST2 251348Z 36012KT 18/16 A2989 RMK A01 T01750156  RH  088%=      5-min Rain = 0
KST2 251349Z 36011KT 18/16 A2989 RMK A01 T01750155  RH  088%=      5-min Rain = 0
KST2 251350Z 35012KT 18/16 A2989 RMK A01 T01750155  RH  088%=      5-min Rain = 0
KST2 251351Z 36011KT 18/16 A2989 RMK A01 T01750155  RH  088%=      5-min Rain = 0
KST2 251352Z 36013KT 18/15 A2989 RMK A01 T01760154  RH  087%=      5-min Rain = 0
KST2 251353Z 36012KT 18/15 A2989 RMK A01 T01760154  RH  087%=      5-min Rain = 0
KST2 251354Z 36012KT 18/15 A2989 RMK A01 T01750153  RH  087%=      5-min Rain = 0
KST2 251355Z 00012KT 18/15 A2989 RMK A01 T01760153  RH  087%=      5-min Rain = 0
KST2 251356Z 00011KT 18/15 A2989 RMK A01 T01760154  RH  087%=      5-min Rain = 0
KST2 251357Z 00012KT 18/15 A2989 RMK A01 T01760154  RH  087%=      5-min Rain = 0
KST2 251358Z 00012KT 18/15 A299 RMK A01 T01760154  RH  086%=      5-min Rain = 0
KST2 251359Z 00011KT 18/15 A299 RMK A01 T01770154  RH  087%=      5-min Rain = 0
KST2 251400Z 01011KT 18/15 A299 RMK A01 T01770154  RH  087%=      5-min Rain = 0
KST2 251401Z 01011KT 18/16 A299 RMK A01 T01770155  RH  087%=      5-min Rain = 0
KST2 251402Z 01011KT 18/16 A299 RMK A01 T01780155  RH  087%=      5-min Rain = 0
KST2 251403Z 01009KT 18/16 A299 RMK A01 T01780156  RH  087%=      5-min Rain = 0
KST2 251404Z 01010KT 18/16 A299 RMK A01 T01780157  RH  087%=      5-min Rain = 0
KST2 251405Z 01010KT 18/16 A299 RMK A01 T01780155  RH  086%=      5-min Rain = 0
KST2 251406Z 01011KT 18/16 A299 RMK A01 T01780155  RH  086%=      5-min Rain = 0
KST2 251407Z 01009KT 18/16 A299 RMK A01 T01780156  RH  087%=      5-min Rain = 0
KST2 251408Z 01011KT 18/16 A299 RMK A01 T01780157  RH  087%=      5-min Rain = 0
KST2 251409Z 01010KT 18/16 A2989 RMK A01 T01790156  RH  086%=      5-min Rain = 0
KST2 251410Z 01012KT 18/16 A2989 RMK A01 T01790157  RH  087%=      5-min Rain = 0
KST2 251411Z 01012KT 18/16 A2989 RMK A01 T01790155  RH  086%=      5-min Rain = 0
KST2 251412Z 01012KT 18/16 A2989 RMK A01 T01790155  RH  086%=      5-min Rain = 0
KST2 251413Z 01010KT 18/16 A2989 RMK A01 T01790155  RH  086%=      5-min Rain = 0
KST2 251414Z 01012KT 18/16 A2989 RMK A01 T01790156  RH  086%=      5-min Rain = 0
KST2 251415Z 01011KT 18/15 A2989 RMK A01 T01790154  RH  086%=      5-min Rain = 0
KST2 251416Z 02011KT 18/16 A2989 RMK A01 T01790156  RH  086%=      5-min Rain = 0
KST2 251417Z 01012KT 18/16 A2989 RMK A01 T01790156  RH  086%=      5-min Rain = 0
KST2 251418Z 02012KT 18/16 A2989 RMK A01 T01790155  RH  086%=      5-min Rain = 0
KST2 251419Z 01012KT 18/15 A2989 RMK A01 T01790154  RH  085%=      5-min Rain = 0
KST2 251420Z 01011KT 18/16 A2989 RMK A01 T01800156  RH  086%=      5-min Rain = 0
KST2 251421Z 01012KT 18/16 A2989 RMK A01 T01800157  RH  086%=      5-min Rain = 0
KST2 251422Z 01012KT 18/16 A2989 RMK A01 T01800156  RH  086%=      5-min Rain = 0
KST2 251423Z 01011KT 18/16 A2989 RMK A01 T01800157  RH  086%=      5-min Rain = 0
KST2 251424Z 01012KT 18/16 A2989 RMK A01 T01800156  RH  086%=      5-min Rain = 0
KST2 251425Z 01011KT 18/16 A2989 RMK A01 T01800156  RH  086%=      5-min Rain = 0
KST2 251426Z 01011KT 18/16 A2989 RMK A01 T01810156  RH  086%=      5-min Rain = 0
KST2 251427Z 01012KT 18/16 A2989 RMK A01 T01810157  RH  086%=      5-min Rain = 0
KST2 251428Z 01011KT 18/16 A2989 RMK A01 T01810155  RH  085%=      5-min Rain = 0
KST2 251429Z 01011KT 18/16 A2989 RMK A01 T01810157  RH  086%=      5-min Rain = 0
KST2 251430Z 01011KT 18/16 A2989 RMK A01 T01810156  RH  085%=      5-min Rain = 0
KST2 251431Z 01012KT 18/16 A2989 RMK A01 T01810155  RH  085%=      5-min Rain = 0
KST2 251432Z 01011KT 18/16 A2989 RMK A01 T01810155  RH  085%=      5-min Rain = 0
KST2 251433Z 01012KT 18/16 A2989 RMK A01 T01820157  RH  086%=      5-min Rain = 0
KST2 251434Z 02011KT 18/16 A2989 RMK A01 T01820157  RH  085%=      5-min Rain = 0
KST2 251435Z 01012KT 18/16 A2989 RMK A01 T01820159  RH  086%=      5-min Rain = 0
KST2 251436Z 01012KT 18/16 A2989 RMK A01 T01820157  RH  085%=      5-min Rain = 0
KST2 251437Z 02011KT 18/16 A2989 RMK A01 T01820157  RH  085%=      5-min Rain = 0
KST2 251438Z 02011KT 18/16 A2989 RMK A01 T01820159  RH  086%=      5-min Rain = 0
KST2 251439Z 01013KT 18/16 A2988 RMK A01 T01830158  RH  086%=      5-min Rain = 0
KST2 251440Z 01012KT 18/16 A2988 RMK A01 T01820157  RH  085%=      5-min Rain = 0
KST2 251441Z 01013KT 18/16 A2988 RMK A01 T01830158  RH  085%=      5-min Rain = 0
KST2 251442Z 01012KT 18/16 A2988 RMK A01 T01820157  RH  085%=      5-min Rain = 0
KST2 251443Z 02012KT 18/16 A2988 RMK A01 T01830158  RH  086%=      5-min Rain = 0
KST2 251444Z 02013KT 18/16 A2989 RMK A01 T01830157  RH  085%=      5-min Rain = 0
KST2 251445Z 01013KT 18/16 A2988 RMK A01 T01830156  RH  084%=      5-min Rain = 0
KST2 251446Z 01011KT 18/16 A2989 RMK A01 T01830157  RH  085%=      5-min Rain = 0
KST2 251447Z 01010KT 18/16 A2989 RMK A01 T01830158  RH  085%=      5-min Rain = 0
KST2 251448Z 01009KT 18/16 A2989 RMK A01 T01830161  RH  087%=      5-min Rain = 0
KST2 251449Z 01009KT 18/16 A2989 RMK A01 T01840161  RH  087%=      5-min Rain = 0
KST2 251450Z 01011KT 19/16 A2989 RMK A01 T01850161  RH  086%=      5-min Rain = 0
KST2 251451Z 01012KT 19/16 A2989 RMK A01 T01850158  RH  085%=      5-min Rain = 0
KST2 251452Z 01010KT 19/16 A2989 RMK A01 T01850160  RH  085%=      5-min Rain = 0
KST2 251453Z 01011KT 19/16 A2989 RMK A01 T01850160  RH  086%=      5-min Rain = 0
KST2 251454Z 00011KT 19/16 A2989 RMK A01 T01850160  RH  085%=      5-min Rain = 0
KST2 251455Z 01011KT 19/16 A2989 RMK A01 T01850160  RH  085%=      5-min Rain = 0
KST2 251456Z 01011KT 19/16 A2989 RMK A01 T01850161  RH  086%=      5-min Rain = 0
KST2 251457Z 01010KT 19/16 A2989 RMK A01 T01850160  RH  085%=      5-min Rain = 0
KST2 251458Z 00010KT 19/16 A2989 RMK A01 T01850161  RH  086%=      5-min Rain = 0
KST2 251459Z 00012KT 19/16 A2989 RMK A01 T01860160  RH  085%=      5-min Rain = 0
KST2 251500Z 01012KT 19/16 A2989 RMK A01 T01860159  RH  085%=      5-min Rain = 0
KST2 251501Z 01012KT 19/16 A2989 RMK A01 T01860160  RH  085%=      5-min Rain = 0
KST2 251502Z 00011KT 19/16 A2989 RMK A01 T01860161  RH  085%=      5-min Rain = 0
KST2 251503Z 00012KT 19/16 A2989 RMK A01 T01860160  RH  085%=      5-min Rain = 0
KST2 251504Z 36013KT 19/16 A2989 RMK A01 T01860159  RH  084%=      5-min Rain = 0
KST2 251505Z 35013KT 19/16 A2989 RMK A01 T01860157  RH  083%=      5-min Rain = 0
KST2 251506Z 36013KT 19/16 A2989 RMK A01 T01860157  RH  083%=      5-min Rain = 0
KST2 251507Z 00012KT 19/16 A2989 RMK A01 T01860158  RH  084%=      5-min Rain = 0
KST2 251508Z 01012KT 19/16 A2989 RMK A01 T01860159  RH  084%=      5-min Rain = 0
KST2 251509Z 01013KT 19/16 A2989 RMK A01 T01860159  RH  084%=      5-min Rain = 0
KST2 251510Z 00013KT 19/16 A2989 RMK A01 T01870159  RH  084%=      5-min Rain = 0
KST2 251511Z 00014KT 19/16 A2989 RMK A01 T01860158  RH  083%=      5-min Rain = 0
KST2 251512Z 01014KT 19/16 A2989 RMK A01 T01870157  RH  083%=      5-min Rain = 0
KST2 251513Z 00013KT 19/16 A2989 RMK A01 T01860158  RH  084%=      5-min Rain = 0
KST2 251514Z 00011KT 19/16 A2989 RMK A01 T01870160  RH  084%=      5-min Rain = 0
KST2 251515Z 36011KT 19/16 A2989 RMK A01 T01880162  RH  085%=      5-min Rain = 0
KST2 251516Z 36012KT 19/16 A2989 RMK A01 T01880160  RH  084%=      5-min Rain = 0
KST2 251517Z 00013KT 19/16 A2989 RMK A01 T01880159  RH  083%=      5-min Rain = 0
KST2 251518Z 36012KT 19/16 A2989 RMK A01 T01880159  RH  083%=      5-min Rain = 0
KST2 251519Z 36012KT 19/16 A2989 RMK A01 T01880159  RH  083%=      5-min Rain = 0
KST2 251520Z 01012KT 19/16 A2989 RMK A01 T01880160  RH  084%=      5-min Rain = 0
KST2 251521Z 36011KT 19/16 A2989 RMK A01 T01890159  RH  083%=      5-min Rain = 0
KST2 251522Z 00012KT 19/16 A2989 RMK A01 T01880160  RH  083%=      5-min Rain = 0
KST2 251523Z 01015KT 19/16 A2989 RMK A01 T01890158  RH  082%=      5-min Rain = 0
KST2 251524Z 00013KT 19/16 A2989 RMK A01 T01890160  RH  083%=      5-min Rain = 0
KST2 251525Z 01011KT 19/16 A2989 RMK A01 T01890161  RH  084%=      5-min Rain = 0
KST2 251526Z 01014KT 19/16 A2989 RMK A01 T01890162  RH  084%=      5-min Rain = 0
KST2 251527Z 01014KT 19/16 A2989 RMK A01 T01900161  RH  083%=      5-min Rain = 0
KST2 251528Z 36014KT 19/16 A2989 RMK A01 T01900161  RH  083%=      5-min Rain = 0
KST2 251529Z 36014KT 19/16 A2989 RMK A01 T01890158  RH  082%=      5-min Rain = 0
KST2 251530Z 00013KT 19/16 A2989 RMK A01 T01890158  RH  082%=      5-min Rain = 0
KST2 251531Z 36013KT 19/16 A2989 RMK A01 T01890158  RH  082%=      5-min Rain = 0
KST2 251532Z 00013KT 19/16 A2989 RMK A01 T01890157  RH  082%=      5-min Rain = 0
KST2 251533Z 00013KT 19/16 A2989 RMK A01 T01890159  RH  083%=      5-min Rain = 0
KST2 251534Z 00015KT 19/16 A2989 RMK A01 T01890158  RH  082%=      5-min Rain = 0
KST2 251535Z 00014KT 19/16 A2989 RMK A01 T01890156  RH  081%=      5-min Rain = 0
KST2 251536Z 01014KT 19/16 A2989 RMK A01 T01890159  RH  083%=      5-min Rain = 0
KST2 251537Z 00012KT 19/16 A2989 RMK A01 T01900160  RH  083%=      5-min Rain = 0
KST2 251538Z 01012KT 19/16 A2989 RMK A01 T01900162  RH  084%=      5-min Rain = 0
KST2 251539Z 36013KT 19/16 A2989 RMK A01 T01910161  RH  083%=      5-min Rain = 0
KST2 251540Z 36014KT 19/16 A2989 RMK A01 T01910158  RH  082%=      5-min Rain = 0
KST2 251541Z 35013KT 19/16 A2989 RMK A01 T01910158  RH  081%=      5-min Rain = 0
KST2 251542Z 36012KT 19/16 A2989 RMK A01 T01910158  RH  081%=      5-min Rain = 0
KST2 251543Z 36014KT 19/16 A2989 RMK A01 T01910158  RH  081%=      5-min Rain = 0
KST2 251544Z 01012KT 19/16 A2989 RMK A01 T01910159  RH  082%=      5-min Rain = 0
KST2 251545Z 00012KT 19/16 A2989 RMK A01 T01920162  RH  083%=      5-min Rain = 0
KST2 251546Z 35011KT 19/16 A2989 RMK A01 T01920159  RH  082%=      5-min Rain = 0
KST2 251547Z 36013KT 19/16 A2989 RMK A01 T01920157  RH  080%=      5-min Rain = 0
KST2 251548Z 36013KT 19/16 A2989 RMK A01 T01920159  RH  081%=      5-min Rain = 0
KST2 251549Z 36014KT 19/16 A2989 RMK A01 T01920158  RH  081%=      5-min Rain = 0
KST2 251550Z 01013KT 19/16 A2989 RMK A01 T01920158  RH  080%=      5-min Rain = 0
KST2 251551Z 01014KT 19/16 A2989 RMK A01 T01920162  RH  082%=      5-min Rain = 0
KST2 251552Z 01014KT 19/16 A2989 RMK A01 T01930159  RH  081%=      5-min Rain = 0
KST2 251553Z 01013KT 19/16 A2989 RMK A01 T01920161  RH  082%=      5-min Rain = 0
KST2 251554Z 01012KT 19/16 A2989 RMK A01 T01930161  RH  082%=      5-min Rain = 0
KST2 251555Z 00012KT 19/16 A2989 RMK A01 T01930162  RH  082%=      5-min Rain = 0
KST2 251556Z 36013KT 19/16 A2989 RMK A01 T01930162  RH  082%=      5-min Rain = 0
KST2 251557Z 35013KT 19/16 A2989 RMK A01 T01930158  RH  080%=      5-min Rain = 0
KST2 251558Z 36012KT 19/16 A2989 RMK A01 T01930160  RH  081%=      5-min Rain = 0
KST2 251559Z 00012KT 19/16 A2989 RMK A01 T01940159  RH  080%=      5-min Rain = 0
KST2 251600Z 36012KT 19/16 A2989 RMK A01 T01940162  RH  082%=      5-min Rain = 0
KST2 251601Z 36012KT 20/16 A2989 RMK A01 T01950161  RH  081%=      5-min Rain = 0
KST2 251602Z 36013KT 20/16 A2989 RMK A01 T01950158  RH  079%=      5-min Rain = 0
KST2 251603Z 00013KT 20/16 A2989 RMK A01 T01950159  RH  080%=      5-min Rain = 0
KST2 251604Z 00014KT 20/16 A2989 RMK A01 T01950161  RH  081%=      5-min Rain = 0
KST2 251605Z 00014KT 20/16 A2989 RMK A01 T01960160  RH  080%=      5-min Rain = 0
KST2 251606Z 36013KT 20/16 A2989 RMK A01 T01950158  RH  079%=      5-min Rain = 0
KST2 251607Z 00014KT 20/16 A2989 RMK A01 T01950159  RH  080%=      5-min Rain = 0
KST2 251608Z 01014KT 20/16 A2989 RMK A01 T01950159  RH  080%=      5-min Rain = 0
KST2 251609Z 00014KT 20/16 A2989 RMK A01 T01950160  RH  080%=      5-min Rain = 0
KST2 251610Z 36013KT 20/16 A2989 RMK A01 T01950159  RH  080%=      5-min Rain = 0
KST2 251611Z 01013KT 20/16 A2989 RMK A01 T01950161  RH  081%=      5-min Rain = 0
KST2 251612Z 01014KT 20/16 A2989 RMK A01 T01960163  RH  081%=      5-min Rain = 0
KST2 251613Z 00012KT 20/16 A2989 RMK A01 T01960160  RH  080%=      5-min Rain = 0
KST2 251614Z 01012KT 20/16 A2989 RMK A01 T01960162  RH  081%=      5-min Rain = 0
KST2 251615Z 00013KT 20/16 A2989 RMK A01 T01960163  RH  081%=      5-min Rain = 0
KST2 251616Z 00012KT 20/16 A2989 RMK A01 T01960162  RH  081%=      5-min Rain = 0
KST2 251617Z 01011KT 20/16 A2989 RMK A01 T01970162  RH  081%=      5-min Rain = 0
KST2 251618Z 00011KT 20/17 A2989 RMK A01 T01970165  RH  082%=      5-min Rain = 0
KST2 251619Z 01013KT 20/17 A2989 RMK A01 T01980166  RH  081%=      5-min Rain = 0
KST2 251620Z 01012KT 20/17 A2989 RMK A01 T01990167  RH  081%=      5-min Rain = 0
KST2 251621Z 01012KT 20/17 A2989 RMK A01 T01990166  RH  081%=      5-min Rain = 0
KST2 251622Z 01012KT 20/16 A2989 RMK A01 T02000164  RH  080%=      5-min Rain = 0
KST2 251623Z 01011KT 20/16 A2989 RMK A01 T01990159  RH  078%=      5-min Rain = 0
KST2 251624Z 00011KT 20/16 A2989 RMK A01 T01980163  RH  080%=      5-min Rain = 0
KST2 251625Z 35011KT 20/16 A2989 RMK A01 T01990163  RH  080%=      5-min Rain = 0
KST2 251626Z 36011KT 20/16 A2989 RMK A01 T01990159  RH  077%=      5-min Rain = 0
KST2 251627Z 01011KT 20/16 A2989 RMK A01 T02000163  RH  079%=      5-min Rain = 0
KST2 251628Z 36012KT 20/16 A2989 RMK A01 T02000162  RH  079%=      5-min Rain = 0
KST2 251629Z 36012KT 20/16 A2989 RMK A01 T02000159  RH  077%=      5-min Rain = 0
KST2 251630Z 35012KT 20/16 A2989 RMK A01 T02000160  RH  078%=      5-min Rain = 0
KST2 251631Z 36011KT 20/16 A2989 RMK A01 T02000160  RH  078%=      5-min Rain = 0
KST2 251632Z 35012KT 20/16 A2989 RMK A01 T02000159  RH  077%=      5-min Rain = 0
KST2 251633Z 36011KT 20/16 A2989 RMK A01 T02000159  RH  077%=      5-min Rain = 0
KST2 251634Z 36010KT 20/16 A2989 RMK A01 T02010163  RH  079%=      5-min Rain = 0
KST2 251635Z 00011KT 20/16 A2989 RMK A01 T02020162  RH  078%=      5-min Rain = 0
KST2 251636Z 00012KT 20/17 A2989 RMK A01 T02020165  RH  079%=      5-min Rain = 0
KST2 251637Z 00012KT 20/16 A2989 RMK A01 T02020162  RH  078%=      5-min Rain = 0
KST2 251638Z 36013KT 20/16 A2989 RMK A01 T02010158  RH  076%=      5-min Rain = 0
KST2 251639Z 36013KT 20/16 A2989 RMK A01 T02010158  RH  076%=      5-min Rain = 0
KST2 251640Z 00012KT 20/16 A2989 RMK A01 T02010162  RH  078%=      5-min Rain = 0
KST2 251641Z 01012KT 20/17 A2989 RMK A01 T02020165  RH  080%=      5-min Rain = 0
KST2 251642Z 02011KT 20/17 A2989 RMK A01 T02020165  RH  079%=      5-min Rain = 0
KST2 251643Z 01011KT 20/17 A2989 RMK A01 T02020165  RH  079%=      5-min Rain = 0
KST2 251644Z 00012KT 20/17 A2989 RMK A01 T02030166  RH  079%=      5-min Rain = 0
KST2 251645Z 00013KT 20/17 A2989 RMK A01 T02030165  RH  079%=      5-min Rain = 0
KST2 251646Z 00012KT 20/16 A2989 RMK A01 T02030163  RH  078%=      5-min Rain = 0
KST2 251647Z 01011KT 20/17 A299 RMK A01 T02040169  RH  080%=      5-min Rain = 0
KST2 251648Z 00010KT 21/17 A299 RMK A01 T02050169  RH  080%=      5-min Rain = 0
KST2 251649Z 01009KT 21/17 A299 RMK A01 T02060169  RH  079%=      5-min Rain = 0
KST2 251650Z 00009KT 21/17 A299 RMK A01 T02070172  RH  081%=      5-min Rain = 0
KST2 251651Z 00011KT 21/17 A299 RMK A01 T02070166  RH  078%=      5-min Rain = 0
KST2 251652Z 00011KT 21/16 A299 RMK A01 T02060164  RH  077%=      5-min Rain = 0
KST2 251653Z 01012KT 21/16 A299 RMK A01 T02050164  RH  077%=      5-min Rain = 0
KST2 251654Z 00012KT 21/16 A299 RMK A01 T02060163  RH  077%=      5-min Rain = 0
KST2 251655Z 01011KT 21/17 A299 RMK A01 T02050166  RH  078%=      5-min Rain = 0
KST2 251656Z 01012KT 21/17 A299 RMK A01 T02060168  RH  079%=      5-min Rain = 0
KST2 251657Z 01013KT 21/16 A299 RMK A01 T02070162  RH  076%=      5-min Rain = 0
KST2 251658Z 01013KT 21/16 A299 RMK A01 T02060162  RH  076%=      5-min Rain = 0
KST2 251659Z 02012KT 21/16 A299 RMK A01 T02060162  RH  076%=      5-min Rain = 0
KST2 251700Z 02012KT 21/16 A299 RMK A01 T02060159  RH  075%=      5-min Rain = 0
KST2 251701Z 02012KT 21/16 A299 RMK A01 T02050164  RH  077%=      5-min Rain = 0
KST2 251702Z 36011KT 21/17 A299 RMK A01 T02070169  RH  079%=      5-min Rain = 0
KST2 251703Z 01011KT 21/16 A299 RMK A01 T02070163  RH  076%=      5-min Rain = 0
KST2 251704Z 02011KT 21/16 A299 RMK A01 T02070164  RH  076%=      5-min Rain = 0
KST2 251705Z 02011KT 21/17 A299 RMK A01 T02070165  RH  077%=      5-min Rain = 0
KST2 251706Z 03014KT 21/17 A299 RMK A01 T02070167  RH  078%=      5-min Rain = 0
KST2 251707Z 02013KT 21/16 A299 RMK A01 T02080163  RH  076%=      5-min Rain = 0
KST2 251708Z 01012KT 21/16 A299 RMK A01 T02070163  RH  076%=      5-min Rain = 0
KST2 251709Z 01014KT 21/17 A299 RMK A01 T02070165  RH  077%=      5-min Rain = 0
KST2 251710Z 00013KT 21/16 A299 RMK A01 T02080164  RH  076%=      5-min Rain = 0
KST2 251711Z 00013KT 21/16 A299 RMK A01 T02080163  RH  076%=      5-min Rain = 0
KST2 251712Z 01012KT 21/17 A299 RMK A01 T02080168  RH  078%=      5-min Rain = 0
KST2 251713Z 01012KT 21/17 A299 RMK A01 T02090165  RH  076%=      5-min Rain = 0
KST2 251714Z 01010KT 21/17 A299 RMK A01 T02090166  RH  076%=      5-min Rain = 0
KST2 251715Z 00011KT 21/17 A299 RMK A01 T02090169  RH  078%=      5-min Rain = 0
KST2 251716Z 36012KT 21/17 A299 RMK A01 T02100165  RH  076%=      5-min Rain = 0
KST2 251717Z 00013KT 21/16 A2989 RMK A01 T02100163  RH  074%=      5-min Rain = 0
KST2 251718Z 01013KT 21/17 A299 RMK A01 T02100165  RH  075%=      5-min Rain = 0
KST2 251719Z 01012KT 21/16 A2989 RMK A01 T02100164  RH  075%=      5-min Rain = 0
KST2 251720Z 00013KT 21/17 A2989 RMK A01 T02110171  RH  078%=      5-min Rain = 0
KST2 251721Z 00013KT 21/17 A2989 RMK A01 T02110165  RH  075%=      5-min Rain = 0
KST2 251722Z 35010KT 21/16 A2989 RMK A01 T02100162  RH  074%=      5-min Rain = 0
KST2 251723Z 36012KT 21/16 A2989 RMK A01 T02100164  RH  075%=      5-min Rain = 0
KST2 251724Z 36012KT 21/16 A2989 RMK A01 T02110161  RH  073%=      5-min Rain = 0
KST2 251725Z 01013KT 21/17 A2989 RMK A01 T02110165  RH  075%=      5-min Rain = 0
KST2 251726Z 01013KT 21/17 A2989 RMK A01 T02120167  RH  076%=      5-min Rain = 0
KST2 251727Z 01012KT 21/17 A2989 RMK A01 T02130165  RH  074%=      5-min Rain = 0
KST2 251728Z 01011KT 21/17 A2989 RMK A01 T02120166  RH  075%=      5-min Rain = 0
KST2 251729Z 00013KT 21/17 A2989 RMK A01 T02110165  RH  075%=      5-min Rain = 0
KST2 251730Z 36013KT 21/16 A2989 RMK A01 T02100161  RH  073%=      5-min Rain = 0
KST2 251731Z 00012KT 21/16 A2989 RMK A01 T02090163  RH  075%=      5-min Rain = 0
KST2 251732Z 36010KT 21/17 A2989 RMK A01 T02100166  RH  076%=      5-min Rain = 0
KST2 251733Z 36013KT 21/17 A2989 RMK A01 T02110165  RH  075%=      5-min Rain = 0
KST2 251734Z 01010KT 21/17 A2989 RMK A01 T02120165  RH  074%=      5-min Rain = 0
KST2 251735Z 01013KT 21/17 A2989 RMK A01 T02120172  RH  078%=      5-min Rain = 0
KST2 251736Z 01012KT 21/17 A2989 RMK A01 T02130171  RH  077%=      5-min Rain = 0
KST2 251737Z 00012KT 21/17 A2989 RMK A01 T02130171  RH  077%=      5-min Rain = 0
KST2 251738Z 36013KT 21/17 A2989 RMK A01 T02130165  RH  074%=      5-min Rain = 0
KST2 251739Z 36012KT 21/16 A2989 RMK A01 T02120164  RH  074%=      5-min Rain = 0
KST2 251740Z 36012KT 21/16 A2989 RMK A01 T02130164  RH  074%=      5-min Rain = 0
KST2 251741Z 36011KT 21/17 A2989 RMK A01 T02130167  RH  075%=      5-min Rain = 0
KST2 251742Z 01013KT 21/17 A2989 RMK A01 T02140165  RH  074%=      5-min Rain = 0
KST2 251743Z 00011KT 21/17 A2989 RMK A01 T02130167  RH  075%=      5-min Rain = 0
KST2 251744Z 01014KT 21/17 A2989 RMK A01 T02130168  RH  075%=      5-min Rain = 0
KST2 251745Z 01013KT 21/17 A2989 RMK A01 T02130167  RH  075%=      5-min Rain = 0
KST2 251746Z 01014KT 21/17 A2989 RMK A01 T02130167  RH  075%=      5-min Rain = 0
KST2 251747Z 01011KT 21/17 A2989 RMK A01 T02130166  RH  075%=      5-min Rain = 0
KST2 251748Z 01010KT 21/17 A2989 RMK A01 T02140172  RH  077%=      5-min Rain = 0
KST2 251749Z 01010KT 22/17 A2989 RMK A01 T02150172  RH  077%=      5-min Rain = 0
KST2 251750Z 01014KT 22/17 A2989 RMK A01 T02150170  RH  075%=      5-min Rain = 0
KST2 251751Z 36013KT 22/17 A299 RMK A01 T02150170  RH  075%=      5-min Rain = 0
KST2 251752Z 36011KT 22/17 A299 RMK A01 T02160170  RH  075%=      5-min Rain = 0
KST2 251753Z 01012KT 22/17 A299 RMK A01 T02160170  RH  075%=      5-min Rain = 0
KST2 251754Z 02011KT 22/17 A299 RMK A01 T02160168  RH  074%=      5-min Rain = 0
KST2 251755Z 01016KT 22/17 A299 RMK A01 T02160171  RH  076%=      5-min Rain = 0
KST2 251756Z 01014KT 22/17 A299 RMK A01 T02160170  RH  075%=      5-min Rain = 0
KST2 251757Z 01014KT 22/17 A299 RMK A01 T02170173  RH  076%=      5-min Rain = 0
KST2 251758Z 00013KT 22/17 A299 RMK A01 T02170168  RH  074%=      5-min Rain = 0
KST2 251759Z 01012KT 22/17 A299 RMK A01 T02160165  RH  073%=      5-min Rain = 0
KST2 251800Z 01012KT 22/17 A2989 RMK A01 T02160171  RH  075%=      5-min Rain = 0
KST2 251801Z 02013KT 22/17 A2989 RMK A01 T02170172  RH  075%=      5-min Rain = 0
KST2 251802Z 01012KT 22/17 A2989 RMK A01 T02180172  RH  075%=      5-min Rain = 0
KST2 251803Z 00011KT 22/17 A2989 RMK A01 T02170169  RH  074%=      5-min Rain = 0
KST2 251804Z 01012KT 22/17 A2989 RMK A01 T02170168  RH  074%=      5-min Rain = 0
KST2 251805Z 01010KT 22/17 A2989 RMK A01 T02160165  RH  073%=      5-min Rain = 0
KST2 251806Z 01011KT 22/16 A2989 RMK A01 T02150164  RH  072%=      5-min Rain = 0
KST2 251807Z 36011KT 22/17 A2989 RMK A01 T02150167  RH  074%=      5-min Rain = 0
KST2 251808Z 00012KT 22/17 A2989 RMK A01 T02160170  RH  075%=      5-min Rain = 0
KST2 251809Z 36012KT 22/17 A2989 RMK A01 T02170167  RH  073%=      5-min Rain = 0
KST2 251810Z 35011KT 22/17 A2989 RMK A01 T02170169  RH  074%=      5-min Rain = 0
KST2 251811Z 36011KT 22/17 A2989 RMK A01 T02170167  RH  073%=      5-min Rain = 0
KST2 251812Z 36012KT 22/17 A2989 RMK A01 T02180168  RH  073%=      5-min Rain = 0
KST2 251813Z 36011KT 22/17 A2989 RMK A01 T02190167  RH  072%=      5-min Rain = 0
KST2 251814Z 01011KT 22/18 A2989 RMK A01 T02190175  RH  076%=      5-min Rain = 0
KST2 251815Z 00012KT 22/18 A2989 RMK A01 T02210180  RH  078%=      5-min Rain = 0
KST2 251816Z 01015KT 22/17 A2989 RMK A01 T02230173  RH  074%=      5-min Rain = 0
KST2 251817Z 01014KT 22/17 A2989 RMK A01 T02220173  RH  074%=      5-min Rain = 0
KST2 251818Z 01011KT 22/17 A2989 RMK A01 T02200171  RH  074%=      5-min Rain = 0
KST2 251819Z 01011G16KT 22/17 A2989 RMK A01 T02190168  RH  073%=      5-min Rain = 0
KST2 251820Z 01015KT 22/17 A2989 RMK A01 T02190172  RH  075%=      5-min Rain = 0
KST2 251821Z 01012KT 22/17 A2989 RMK A01 T02190166  RH  072%=      5-min Rain = 0
KST2 251822Z 01012KT 22/17 A2989 RMK A01 T02170167  RH  073%=      5-min Rain = 0
KST2 251823Z 01011KT 22/17 A2989 RMK A01 T02180171  RH  075%=      5-min Rain = 0
KST2 251824Z 02011KT 22/17 A2989 RMK A01 T02190173  RH  075%=      5-min Rain = 0
KST2 251825Z 03011KT 22/17 A2989 RMK A01 T02190169  RH  073%=      5-min Rain = 0
KST2 251826Z 01012KT 22/17 A2989 RMK A01 T02190172  RH  075%=      5-min Rain = 0
KST2 251827Z 01012KT 22/17 A2989 RMK A01 T02190171  RH  074%=      5-min Rain = 0
KST2 251828Z 01013KT 22/17 A2989 RMK A01 T02190171  RH  074%=      5-min Rain = 0
KST2 251829Z 02012KT 22/17 A2989 RMK A01 T02200173  RH  075%=      5-min Rain = 0
KST2 251830Z 01009KT 22/17 A2989 RMK A01 T02200168  RH  073%=      5-min Rain = 0
KST2 251831Z 00010KT 22/17 A2989 RMK A01 T02190170  RH  074%=      5-min Rain = 0
KST2 251832Z 01009KT 22/17 A2989 RMK A01 T02190170  RH  074%=      5-min Rain = 0
KST2 251833Z 02010KT 22/17 A2989 RMK A01 T02190171  RH  074%=      5-min Rain = 0
KST2 251834Z 01012KT 22/17 A2989 RMK A01 T02190173  RH  075%=      5-min Rain = 0
KST2 251835Z 00013KT 22/17 A2989 RMK A01 T02200172  RH  074%=      5-min Rain = 0
KST2 251836Z 01010KT 22/17 A2989 RMK A01 T02200169  RH  073%=      5-min Rain = 0
KST2 251837Z 01011KT 22/17 A2989 RMK A01 T02200174  RH  075%=      5-min Rain = 0
KST2 251838Z 00012KT 22/17 A2989 RMK A01 T02200171  RH  074%=      5-min Rain = 0
KST2 251839Z 01011KT 22/17 A2989 RMK A01 T02200169  RH  073%=      5-min Rain = 0
KST2 251840Z 01012KT 22/17 A2988 RMK A01 T02200174  RH  075%=      5-min Rain = 0
KST2 251841Z 00010KT 22/17 A2988 RMK A01 T02210171  RH  074%=      5-min Rain = 0
KST2 251842Z 00014KT 22/17 A2988 RMK A01 T02210169  RH  072%=      5-min Rain = 0
KST2 251843Z 02014KT 22/17 A2988 RMK A01 T02210172  RH  074%=      5-min Rain = 0
KST2 251844Z 02011KT 22/17 A2988 RMK A01 T02210168  RH  072%=      5-min Rain = 0
KST2 251845Z 02010KT 22/17 A2988 RMK A01 T02210172  RH  074%=      5-min Rain = 0
KST2 251846Z 01010KT 22/18 A2988 RMK A01 T02210175  RH  075%=      5-min Rain = 0
KST2 251847Z 00012KT 22/17 A2988 RMK A01 T02230174  RH  074%=      5-min Rain = 0
KST2 251848Z 01011KT 22/18 A2988 RMK A01 T02220175  RH  074%=      5-min Rain = 0
KST2 251849Z 00012KT 22/17 A2988 RMK A01 T02230174  RH  074%=      5-min Rain = 0
KST2 251850Z 36011KT 22/17 A2988 RMK A01 T02230173  RH  073%=      5-min Rain = 0
KST2 251851Z 01014KT 22/17 A2988 RMK A01 T02230174  RH  073%=      5-min Rain = 0
KST2 251852Z 00012KT 22/17 A2988 RMK A01 T02240173  RH  073%=      5-min Rain = 0
KST2 251853Z 00011KT 22/17 A2988 RMK A01 T02230170  RH  072%=      5-min Rain = 0
KST2 251854Z 01010KT 22/17 A2988 RMK A01 T02230171  RH  073%=      5-min Rain = 0
KST2 251855Z 01010KT 22/17 A2988 RMK A01 T02230173  RH  073%=      5-min Rain = 0
KST2 251856Z 02011KT 22/18 A2988 RMK A01 T02240175  RH  074%=      5-min Rain = 0
KST2 251857Z 01011KT 23/17 A2988 RMK A01 T02250174  RH  073%=      5-min Rain = 0
KST2 251858Z 02012KT 23/17 A2988 RMK A01 T02250173  RH  073%=      5-min Rain = 0
KST2 251859Z 02012KT 23/17 A2988 RMK A01 T02250174  RH  073%=      5-min Rain = 0
KST2 251900Z 02010KT 22/18 A2988 RMK A01 T02240179  RH  076%=      5-min Rain = 0
KST2 251901Z 02010KT 23/17 A2988 RMK A01 T02250173  RH  072%=      5-min Rain = 0
KST2 251902Z 02009KT 22/17 A2988 RMK A01 T02240171  RH  072%=      5-min Rain = 0
KST2 251903Z 02010KT 22/17 A2988 RMK A01 T02230170  RH  072%=      5-min Rain = 0
KST2 251904Z 00011KT 22/17 A2988 RMK A01 T02230171  RH  072%=      5-min Rain = 0
KST2 251905Z 00010KT 22/17 A2988 RMK A01 T02230171  RH  072%=      5-min Rain = 0
KST2 251906Z 00008KT 22/17 A2988 RMK A01 T02230167  RH  071%=      5-min Rain = 0
KST2 251907Z 01011KT 22/18 A2988 RMK A01 T02230177  RH  075%=      5-min Rain = 0
KST2 251908Z 01012KT 23/17 A2988 RMK A01 T02250173  RH  072%=      5-min Rain = 0
KST2 251909Z 01010KT 23/17 A2988 RMK A01 T02250172  RH  072%=      5-min Rain = 0
KST2 251910Z 36010KT 22/17 A2988 RMK A01 T02240170  RH  071%=      5-min Rain = 0
KST2 251911Z 00008KT 22/17 A2988 RMK A01 T02240174  RH  073%=      5-min Rain = 0
KST2 251912Z 35008KT 23/17 A2988 RMK A01 T02260170  RH  071%=      5-min Rain = 0
KST2 251913Z 00008KT 23/17 A2988 RMK A01 T02270172  RH  071%=      5-min Rain = 0
KST2 251914Z 35008KT 23/17 A2988 RMK A01 T02280172  RH  071%=      5-min Rain = 0
KST2 251915Z 00008KT 23/17 A2988 RMK A01 T02270171  RH  070%=      5-min Rain = 0
KST2 251916Z 03011KT 23/18 A2988 RMK A01 T02270177  RH  073%=      5-min Rain = 0
KST2 251917Z 01010KT 23/18 A2988 RMK A01 T02280176  RH  073%=      5-min Rain = 0
KST2 251918Z 01010KT 23/17 A2988 RMK A01 T02280174  RH  071%=      5-min Rain = 0
KST2 251919Z 01007KT 23/17 A2988 RMK A01 T02280169  RH  069%=      5-min Rain = 0
KST2 251920Z 01008G13KT 23/17 A2988 RMK A01 T02260170  RH  070%=      5-min Rain = 0
KST2 251921Z 01010KT 23/17 A2988 RMK A01 T02260169  RH  070%=      5-min Rain = 0
KST2 251922Z 35010KT 23/17 A2988 RMK A01 T02260170  RH  070%=      5-min Rain = 0
KST2 251923Z 01011KT 23/17 A2988 RMK A01 T02270172  RH  071%=      5-min Rain = 0
KST2 251924Z 02011KT 23/18 A2988 RMK A01 T02300181  RH  074%=      5-min Rain = 0
KST2 251925Z 03011KT 23/17 A2988 RMK A01 T02320172  RH  069%=      5-min Rain = 0
KST2 251926Z 04009KT 23/17 A2988 RMK A01 T02310168  RH  068%=      5-min Rain = 0
KST2 251927Z 04009KT 23/17 A2988 RMK A01 T02290170  RH  069%=      5-min Rain = 0
KST2 251928Z 04008KT 23/17 A2988 RMK A01 T02280169  RH  069%=      5-min Rain = 0
KST2 251929Z 01009KT 23/17 A2988 RMK A01 T02280170  RH  070%=      5-min Rain = 0
KST2 251930Z 00009KT 23/18 A2988 RMK A01 T02290175  RH  072%=      5-min Rain = 0
KST2 251931Z 03008KT 23/18 A2988 RMK A01 T02300178  RH  073%=      5-min Rain = 0
KST2 251932Z 04010KT 23/17 A2988 RMK A01 T02310174  RH  070%=      5-min Rain = 0
KST2 251933Z 04011KT 23/18 A2988 RMK A01 T02310177  RH  071%=      5-min Rain = 0
KST2 251934Z 04009KT 23/17 A2988 RMK A01 T02310171  RH  069%=      5-min Rain = 0
KST2 251935Z 04007KT 23/17 A2988 RMK A01 T02300170  RH  069%=      5-min Rain = 0
KST2 251936Z 04008KT 23/18 A2988 RMK A01 T02300175  RH  071%=      5-min Rain = 0
KST2 251937Z 02009KT 23/17 A2988 RMK A01 T02300172  RH  070%=      5-min Rain = 0
KST2 251938Z 00009KT 23/17 A2988 RMK A01 T02310174  RH  070%=      5-min Rain = 0
KST2 251939Z 01009KT 23/17 A2988 RMK A01 T02310169  RH  068%=      5-min Rain = 0
KST2 251940Z 01008KT 23/17 A2988 RMK A01 T02300172  RH  069%=      5-min Rain = 0
KST2 251941Z 03008KT 23/17 A2988 RMK A01 T02300174  RH  071%=      5-min Rain = 0
KST2 251942Z 06008KT 23/17 A2988 RMK A01 T02320172  RH  069%=      5-min Rain = 0
KST2 251943Z 06007KT 23/17 A2988 RMK A01 T02320165  RH  066%=      5-min Rain = 0
KST2 251944Z 04010KT 23/17 A2988 RMK A01 T02310168  RH  067%=      5-min Rain = 0
KST2 251945Z 02011KT 23/17 A2988 RMK A01 T02310166  RH  067%=      5-min Rain = 0
KST2 251946Z 03010KT 23/17 A2988 RMK A01 T02310169  RH  068%=      5-min Rain = 0
KST2 251947Z 03008KT 23/17 A2988 RMK A01 T02310169  RH  068%=      5-min Rain = 0
KST2 251948Z 02008KT 23/17 A2988 RMK A01 T02310166  RH  067%=      5-min Rain = 0
KST2 251949Z 04009KT 23/17 A2988 RMK A01 T02310174  RH  070%=      5-min Rain = 0
KST2 251950Z 04009KT 23/17 A2988 RMK A01 T02320172  RH  069%=      5-min Rain = 0
KST2 251951Z 04008KT 23/17 A2988 RMK A01 T02320170  RH  068%=      5-min Rain = 0
KST2 251952Z 03008KT 23/17 A2988 RMK A01 T02330172  RH  069%=      5-min Rain = 0
KST2 251953Z 01009KT 23/18 A2988 RMK A01 T02330176  RH  070%=      5-min Rain = 0
KST2 251954Z 02010KT 24/17 A2987 RMK A01 T02350173  RH  068%=      5-min Rain = 0
KST2 251955Z 03010KT 24/17 A2987 RMK A01 T02350171  RH  067%=      5-min Rain = 0
KST2 251956Z 01012KT 24/18 A2987 RMK A01 T02350176  RH  069%=      5-min Rain = 0
KST2 251957Z 01010KT 24/17 A2987 RMK A01 T02360170  RH  067%=      5-min Rain = 0
KST2 251958Z 01011KT 24/17 A2987 RMK A01 T02350172  RH  068%=      5-min Rain = 0
KST2 251959Z 01009KT 24/17 A2987 RMK A01 T02350171  RH  067%=      5-min Rain = 0
KST2 252000Z 01011KT 24/18 A2987 RMK A01 T02350177  RH  070%=      5-min Rain = 0
KST2 252001Z 01013KT 24/17 A2987 RMK A01 T02360173  RH  068%=      5-min Rain = 0
KST2 252002Z 01010KT 24/17 A2987 RMK A01 T02350170  RH  067%=      5-min Rain = 0
KST2 252003Z 02010KT 23/17 A2987 RMK A01 T02340170  RH  067%=      5-min Rain = 0
KST2 252004Z 01009KT 23/18 A2987 RMK A01 T02330176  RH  070%=      5-min Rain = 0
KST2 252005Z 03010KT 24/18 A2987 RMK A01 T02350176  RH  069%=      5-min Rain = 0
KST2 252006Z 04011KT 24/18 A2987 RMK A01 T02360176  RH  069%=      5-min Rain = 0
KST2 252007Z 03012KT 24/18 A2987 RMK A01 T02360176  RH  069%=      5-min Rain = 0
KST2 252008Z 01009KT 24/17 A2987 RMK A01 T02370174  RH  068%=      5-min Rain = 0
KST2 252009Z 03012KT 24/18 A2987 RMK A01 T02370176  RH  069%=      5-min Rain = 0
KST2 252010Z 04013KT 24/17 A2987 RMK A01 T02370170  RH  066%=      5-min Rain = 0
KST2 252011Z 03011KT 24/17 A2987 RMK A01 T02380173  RH  067%=      5-min Rain = 0
KST2 252012Z 02010KT 24/18 A2987 RMK A01 T02380176  RH  068%=      5-min Rain = 0
KST2 252013Z 01010KT 24/18 A2987 RMK A01 T02380176  RH  068%=      5-min Rain = 0
KST2 252014Z 01008KT 24/17 A2987 RMK A01 T02380173  RH  067%=      5-min Rain = 0
KST2 252015Z 02010KT 24/18 A2987 RMK A01 T02380178  RH  069%=      5-min Rain = 0
KST2 252016Z 02011KT 24/16 A2987 RMK A01 T02380164  RH  064%=      5-min Rain = 0
KST2 252017Z 02013KT 24/17 A2987 RMK A01 T02370168  RH  065%=      5-min Rain = 0
KST2 252018Z 02011KT 24/17 A2987 RMK A01 T02370173  RH  067%=      5-min Rain = 0
KST2 252019Z 03010KT 24/17 A2987 RMK A01 T02370170  RH  066%=      5-min Rain = 0
KST2 252020Z 04008KT 24/17 A2987 RMK A01 T02370166  RH  065%=      5-min Rain = 0
KST2 252021Z 01010KT 24/17 A2987 RMK A01 T02360165  RH  064%=      5-min Rain = 0
KST2 252022Z 01011KT 24/17 A2987 RMK A01 T02360167  RH  065%=      5-min Rain = 0
KST2 252023Z 00012KT 24/17 A2987 RMK A01 T02370167  RH  065%=      5-min Rain = 0
KST2 252024Z 36012KT 24/17 A2987 RMK A01 T02380170  RH  066%=      5-min Rain = 0
KST2 252025Z 36009KT 24/16 A2987 RMK A01 T02380164  RH  063%=      5-min Rain = 0
KST2 252026Z 01010KT 24/16 A2987 RMK A01 T02380164  RH  063%=      5-min Rain = 0
KST2 252027Z 02011KT 24/17 A2987 RMK A01 T02380166  RH  064%=      5-min Rain = 0
KST2 252028Z 03011KT 24/16 A2987 RMK A01 T02390158  RH  061%=      5-min Rain = 0
KST2 252029Z 03011KT 24/16 A2987 RMK A01 T02380161  RH  062%=      5-min Rain = 0
KST2 252030Z 03012KT 24/16 A2987 RMK A01 T02380163  RH  063%=      5-min Rain = 0
KST2 252031Z 03012KT 24/17 A2987 RMK A01 T02380165  RH  063%=      5-min Rain = 0
KST2 252032Z 04010KT 24/16 A2986 RMK A01 T02380163  RH  063%=      5-min Rain = 0
KST2 252033Z 02012KT 24/16 A2987 RMK A01 T02380162  RH  062%=      5-min Rain = 0
KST2 252034Z 01010KT 24/16 A2986 RMK A01 T02380160  RH  062%=      5-min Rain = 0
KST2 252035Z 02011KT 24/16 A2986 RMK A01 T02380159  RH  061%=      5-min Rain = 0
KST2 252036Z 02009KT 24/17 A2986 RMK A01 T02380167  RH  064%=      5-min Rain = 0
KST2 252037Z 02011KT 24/16 A2986 RMK A01 T02390162  RH  062%=      5-min Rain = 0
KST2 252038Z 03012KT 24/17 A2986 RMK A01 T02390167  RH  064%=      5-min Rain = 0
KST2 252039Z 03010KT 24/17 A2986 RMK A01 T02390166  RH  064%=      5-min Rain = 0
KST2 252040Z 02008KT 24/16 A2986 RMK A01 T02380162  RH  062%=      5-min Rain = 0
KST2 252041Z 02009KT 24/16 A2986 RMK A01 T02380163  RH  063%=      5-min Rain = 0
KST2 252042Z 03007KT 24/16 A2986 RMK A01 T02380163  RH  063%=      5-min Rain = 0
KST2 252043Z 02007KT 24/16 A2986 RMK A01 T02380160  RH  062%=      5-min Rain = 0
KST2 252044Z 00008G13KT 24/17 A2986 RMK A01 T02390168  RH  065%=      5-min Rain = 0
KST2 252045Z 01011KT 24/17 A2986 RMK A01 T02400166  RH  063%=      5-min Rain = 0
KST2 252046Z 01012KT 24/16 A2986 RMK A01 T02410160  RH  061%=      5-min Rain = 0
KST2 252047Z 02010KT 24/16 A2986 RMK A01 T02400157  RH  060%=      5-min Rain = 0
KST2 252048Z 01010KT 24/16 A2986 RMK A01 T02390160  RH  061%=      5-min Rain = 0
KST2 252049Z 01011KT 24/17 A2986 RMK A01 T02390166  RH  064%=      5-min Rain = 0
KST2 252050Z 01012KT 24/17 A2986 RMK A01 T02410170  RH  064%=      5-min Rain = 0
KST2 252051Z 02014KT 24/16 A2986 RMK A01 T02410164  RH  062%=      5-min Rain = 0
KST2 252052Z 02012KT 24/16 A2986 RMK A01 T02410164  RH  062%=      5-min Rain = 0
KST2 252053Z 02011KT 24/16 A2986 RMK A01 T02410164  RH  062%=      5-min Rain = 0
KST2 252054Z 01011KT 24/17 A2986 RMK A01 T02410166  RH  063%=      5-min Rain = 0
KST2 252055Z 01012KT 24/17 A2986 RMK A01 T02410166  RH  063%=      5-min Rain = 0
KST2 252056Z 01008KT 24/17 A2986 RMK A01 T02410165  RH  062%=      5-min Rain = 0
KST2 252057Z 01009KT 24/17 A2986 RMK A01 T02410166  RH  063%=      5-min Rain = 0
KST2 252058Z 02011KT 24/17 A2986 RMK A01 T02410168  RH  064%=      5-min Rain = 0
KST2 252059Z 01010KT 24/17 A2986 RMK A01 T02420165  RH  062%=      5-min Rain = 0
KST2 252100Z 02009KT 24/16 A2986 RMK A01 T02420164  RH  062%=      5-min Rain = 0
KST2 252101Z 03005KT 24/16 A2985 RMK A01 T02420155  RH  058%=      5-min Rain = 0
KST2 252102Z 02007KT 24/16 A2985 RMK A01 T02400157  RH  060%=      5-min Rain = 0
KST2 252103Z 02012KT 24/17 A2986 RMK A01 T02410171  RH  065%=      5-min Rain = 0
KST2 252104Z 02010KT 24/17 A2985 RMK A01 T02420169  RH  064%=      5-min Rain = 0
KST2 252105Z 01010KT 24/17 A2986 RMK A01 T02430172  RH  065%=      5-min Rain = 0
KST2 252106Z 02007KT 24/16 A2985 RMK A01 T02430164  RH  061%=      5-min Rain = 0
KST2 252107Z 01008KT 24/17 A2985 RMK A01 T02420167  RH  063%=      5-min Rain = 0
KST2 252108Z 01007KT 24/16 A2985 RMK A01 T02420161  RH  060%=      5-min Rain = 0
KST2 252109Z 02010KT 24/17 A2985 RMK A01 T02420169  RH  064%=      5-min Rain = 0
KST2 252110Z 03010KT 24/17 A2985 RMK A01 T02430172  RH  064%=      5-min Rain = 0
KST2 252111Z 02010KT 25/18 A2985 RMK A01 T02460181  RH  067%=      5-min Rain = 0
KST2 252112Z 01011KT 25/17 A2985 RMK A01 T02470167  RH  061%=      5-min Rain = 0
KST2 252113Z 00008KT 25/16 A2985 RMK A01 T02450161  RH  059%=      5-min Rain = 0
KST2 252114Z 02009KT 24/17 A2985 RMK A01 T02440165  RH  061%=      5-min Rain = 0
KST2 252115Z 02012KT 24/17 A2986 RMK A01 T02440171  RH  064%=      5-min Rain = 0
KST2 252116Z 02009KT 24/16 A2985 RMK A01 T02440163  RH  061%=      5-min Rain = 0
KST2 252117Z 02009KT 24/16 A2986 RMK A01 T02430161  RH  060%=      5-min Rain = 0
KST2 252118Z 03008KT 24/16 A2986 RMK A01 T02420157  RH  059%=      5-min Rain = 0
KST2 252119Z 03009KT 24/17 A2985 RMK A01 T02420166  RH  062%=      5-min Rain = 0
KST2 252120Z 01008KT 24/17 A2985 RMK A01 T02430165  RH  062%=      5-min Rain = 0
KST2 252121Z 01006KT 24/16 A2985 RMK A01 T02430161  RH  060%=      5-min Rain = 0
KST2 252122Z 03006KT 24/16 A2985 RMK A01 T02430159  RH  060%=      5-min Rain = 0
KST2 252123Z 02005KT 24/16 A2985 RMK A01 T02420162  RH  061%=      5-min Rain = 0
KST2 252124Z 00006KT 24/16 A2985 RMK A01 T02430163  RH  061%=      5-min Rain = 0
KST2 252125Z 03006KT 24/17 A2985 RMK A01 T02440165  RH  061%=      5-min Rain = 0
KST2 252126Z 03011KT 24/16 A2985 RMK A01 T02440161  RH  060%=      5-min Rain = 0
KST2 252127Z 02011KT 25/17 A2985 RMK A01 T02450165  RH  061%=      5-min Rain = 0
KST2 252128Z 02011KT 25/16 A2985 RMK A01 T02450161  RH  059%=      5-min Rain = 0
KST2 252129Z 02011KT 25/16 A2985 RMK A01 T02450160  RH  059%=      5-min Rain = 0
KST2 252130Z 02011KT 24/16 A2985 RMK A01 T02440163  RH  060%=      5-min Rain = 0
KST2 252131Z 01007KT 24/17 A2985 RMK A01 T02440166  RH  062%=      5-min Rain = 0
KST2 252132Z 03006KT 24/17 A2985 RMK A01 T02440167  RH  062%=      5-min Rain = 0
KST2 252133Z 02008KT 25/17 A2985 RMK A01 T02450165  RH  061%=      5-min Rain = 0
KST2 252134Z 00009KT 25/17 A2985 RMK A01 T02460170  RH  063%=      5-min Rain = 0
KST2 252135Z 36007KT 25/16 A2985 RMK A01 T02460158  RH  058%=      5-min Rain = 0
KST2 252136Z 02010KT 25/17 A2985 RMK A01 T02460169  RH  062%=      5-min Rain = 0
KST2 252137Z 02009KT 25/16 A2985 RMK A01 T02460164  RH  060%=      5-min Rain = 0
KST2 252138Z 02009KT 25/16 A2985 RMK A01 T02460164  RH  060%=      5-min Rain = 0
KST2 252139Z 04011KT 25/16 A2985 RMK A01 T02450162  RH  060%=      5-min Rain = 0
KST2 252140Z 03009KT 25/17 A2985 RMK A01 T02450168  RH  062%=      5-min Rain = 0
KST2 252141Z 03009KT 25/16 A2985 RMK A01 T02460162  RH  060%=      5-min Rain = 0
KST2 252142Z 03011KT 25/17 A2985 RMK A01 T02450169  RH  063%=      5-min Rain = 0
KST2 252143Z 01010KT 25/17 A2985 RMK A01 T02460169  RH  062%=      5-min Rain = 0
KST2 252144Z 01011KT 25/16 A2985 RMK A01 T02460161  RH  059%=      5-min Rain = 0
KST2 252145Z 36009KT 25/16 A2985 RMK A01 T02460161  RH  059%=      5-min Rain = 0
KST2 252146Z 35008KT 25/16 A2985 RMK A01 T02450158  RH  058%=      5-min Rain = 0
KST2 252147Z 00006KT 25/16 A2985 RMK A01 T02450161  RH  059%=      5-min Rain = 0
KST2 252148Z 01006KT 25/17 A2985 RMK A01 T02460169  RH  062%=      5-min Rain = 0
KST2 252149Z 02006KT 25/16 A2985 RMK A01 T02470162  RH  059%=      5-min Rain = 0
KST2 252150Z 02009KT 25/16 A2985 RMK A01 T02470164  RH  060%=      5-min Rain = 0
KST2 252151Z 03010KT 25/17 A2985 RMK A01 T02470173  RH  064%=      5-min Rain = 0
KST2 252152Z 02009KT 25/18 A2985 RMK A01 T02490181  RH  066%=      5-min Rain = 0
KST2 252153Z 03009KT 25/18 A2984 RMK A01 T02510176  RH  063%=      5-min Rain = 0
KST2 252154Z 02010KT 25/18 A2984 RMK A01 T02510178  RH  064%=      5-min Rain = 0
KST2 252155Z 00010KT 25/17 A2984 RMK A01 T02510167  RH  060%=      5-min Rain = 0
KST2 252156Z 00007KT 25/16 A2984 RMK A01 T02490163  RH  059%=      5-min Rain = 0
KST2 252157Z 00007KT 25/17 A2984 RMK A01 T02480165  RH  060%=      5-min Rain = 0
KST2 252158Z 35006KT 25/16 A2984 RMK A01 T02480160  RH  058%=      5-min Rain = 0
KST2 252159Z 00005KT 25/16 A2984 RMK A01 T02470163  RH  059%=      5-min Rain = 0
KST2 252200Z 03011KT 25/17 A2984 RMK A01 T02480168  RH  061%=      5-min Rain = 0
KST2 252201Z 00010KT 25/17 A2984 RMK A01 T02490167  RH  060%=      5-min Rain = 0
KST2 252202Z 02011KT 25/16 A2984 RMK A01 T02490164  RH  059%=      5-min Rain = 0
KST2 252203Z 02012KT 25/17 A2984 RMK A01 T02490168  RH  061%=      5-min Rain = 0
KST2 252204Z 02011KT 25/17 A2984 RMK A01 T02480167  RH  061%=      5-min Rain = 0
KST2 252205Z 02011KT 25/16 A2984 RMK A01 T02470164  RH  060%=      5-min Rain = 0
KST2 252206Z 02010KT 25/17 A2984 RMK A01 T02460165  RH  061%=      5-min Rain = 0
KST2 252207Z 03010KT 25/17 A2984 RMK A01 T02460169  RH  062%=      5-min Rain = 0
KST2 252208Z 02012KT 25/17 A2984 RMK A01 T02470174  RH  064%=      5-min Rain = 0
KST2 252209Z 03010KT 25/16 A2984 RMK A01 T02470162  RH  059%=      5-min Rain = 0
KST2 252210Z 02009KT 25/17 A2984 RMK A01 T02470168  RH  061%=      5-min Rain = 0
KST2 252211Z 03011KT 25/17 A2984 RMK A01 T02460169  RH  062%=      5-min Rain = 0
KST2 252212Z 04008KT 25/16 A2984 RMK A01 T02470160  RH  059%=      5-min Rain = 0
KST2 252213Z 03006KT 25/16 A2984 RMK A01 T02460162  RH  059%=      5-min Rain = 0
KST2 252214Z 01005G11KT 25/17 A2985 RMK A01 T02460165  RH  061%=      5-min Rain = 0
KST2 252215Z 02010KT 25/17 A2985 RMK A01 T02470165  RH  060%=      5-min Rain = 0
KST2 252216Z 02011KT 25/17 A2985 RMK A01 T02480167  RH  061%=      5-min Rain = 0
KST2 252217Z 01011KT 25/16 A2985 RMK A01 T02470162  RH  059%=      5-min Rain = 0
KST2 252218Z 01008KT 25/16 A2985 RMK A01 T02460163  RH  060%=      5-min Rain = 0
KST2 252219Z 02008KT 25/17 A2985 RMK A01 T02450167  RH  062%=      5-min Rain = 0
KST2 252220Z 02011KT 25/17 A2985 RMK A01 T02450167  RH  062%=      5-min Rain = 0
KST2 252221Z 01011KT 25/16 A2985 RMK A01 T02460164  RH  060%=      5-min Rain = 0
KST2 252222Z 01008KT 25/16 A2985 RMK A01 T02460160  RH  059%=      5-min Rain = 0
KST2 252223Z 02008KT 25/16 A2985 RMK A01 T02460163  RH  060%=      5-min Rain = 0
KST2 252224Z 02009KT 25/17 A2985 RMK A01 T02460165  RH  061%=      5-min Rain = 0
KST2 252225Z 01009KT 25/16 A2985 RMK A01 T02460162  RH  059%=      5-min Rain = 0
KST2 252226Z 02010KT 25/17 A2985 RMK A01 T02460165  RH  060%=      5-min Rain = 0
KST2 252227Z 03009KT 25/16 A2985 RMK A01 T02460164  RH  060%=      5-min Rain = 0
KST2 252228Z 01004KT 25/16 A2985 RMK A01 T02450159  RH  059%=      5-min Rain = 0
KST2 252229Z 02005KT 25/16 A2985 RMK A01 T02450163  RH  060%=      5-min Rain = 0
KST2 252230Z 01006KT 25/17 A2985 RMK A01 T02450169  RH  063%=      5-min Rain = 0
KST2 252231Z 03008KT 25/17 A2985 RMK A01 T02450165  RH  061%=      5-min Rain = 0
KST2 252232Z 02007KT 25/16 A2985 RMK A01 T02450162  RH  060%=      5-min Rain = 0
KST2 252233Z 02009KT 25/17 A2985 RMK A01 T02450166  RH  061%=      5-min Rain = 0
KST2 252234Z 02011KT 25/17 A2985 RMK A01 T02450168  RH  062%=      5-min Rain = 0
KST2 252235Z 02012KT 25/17 A2985 RMK A01 T02460171  RH  063%=      5-min Rain = 0
KST2 252236Z 02011KT 25/17 A2985 RMK A01 T02460168  RH  062%=      5-min Rain = 0
KST2 252237Z 02011KT 25/17 A2985 RMK A01 T02470170  RH  062%=      5-min Rain = 0
KST2 252238Z 02011KT 25/17 A2985 RMK A01 T02480165  RH  060%=      5-min Rain = 0
KST2 252239Z 02010KT 25/17 A2985 RMK A01 T02470169  RH  061%=      5-min Rain = 0
KST2 252240Z 02009KT 25/17 A2985 RMK A01 T02470173  RH  064%=      5-min Rain = 0
KST2 252241Z 01008KT 25/18 A2985 RMK A01 T02460175  RH  065%=      5-min Rain = 0
KST2 252242Z 01009KT 25/17 A2985 RMK A01 T02460173  RH  064%=      5-min Rain = 0
KST2 252243Z 01008KT 24/17 A2985 RMK A01 T02440166  RH  062%=      5-min Rain = 0
KST2 252244Z 02008KT 24/17 A2985 RMK A01 T02430169  RH  063%=      5-min Rain = 0
KST2 252245Z 02008KT 24/16 A2985 RMK A01 T02430164  RH  061%=      5-min Rain = 0
KST2 252246Z 02007KT 24/16 A2985 RMK A01 T02430162  RH  061%=      5-min Rain = 0
KST2 252247Z 02008KT 24/16 A2985 RMK A01 T02440164  RH  061%=      5-min Rain = 0
KST2 252248Z 02008KT 25/17 A2985 RMK A01 T02460167  RH  062%=      5-min Rain = 0
KST2 252249Z 01007KT 25/17 A2985 RMK A01 T02470169  RH  062%=      5-min Rain = 0
KST2 252250Z 01006KT 25/16 A2985 RMK A01 T02480164  RH  059%=      5-min Rain = 0
KST2 252251Z 02004KT 25/17 A2985 RMK A01 T02480167  RH  060%=      5-min Rain = 0
KST2 252252Z 02004KT 25/16 A2985 RMK A01 T02490160  RH  058%=      5-min Rain = 0
KST2 252253Z 00005KT 25/17 A2985 RMK A01 T02490166  RH  060%=      5-min Rain = 0
KST2 252254Z 02006KT 25/16 A2985 RMK A01 T02500163  RH  059%=      5-min Rain = 0
KST2 252255Z 02010KT 25/16 A2985 RMK A01 T02500164  RH  059%=      5-min Rain = 0
KST2 252256Z 01009KT 25/16 A2985 RMK A01 T02500161  RH  058%=      5-min Rain = 0
KST2 252257Z 02007KT 25/16 A2985 RMK A01 T02490164  RH  059%=      5-min Rain = 0
KST2 252258Z 02010KT 25/17 A2985 RMK A01 T02490168  RH  061%=      5-min Rain = 0
KST2 252259Z 03009KT 25/17 A2985 RMK A01 T02490173  RH  063%=      5-min Rain = 0
KST2 252300Z 04009KT 25/17 A2985 RMK A01 T02490172  RH  062%=      5-min Rain = 0
KST2 252301Z 03011KT 25/17 A2985 RMK A01 T02490171  RH  062%=      5-min Rain = 0
KST2 252302Z 01010KT 25/17 A2985 RMK A01 T02500172  RH  062%=      5-min Rain = 0
KST2 252303Z 01009KT 25/17 A2985 RMK A01 T02500167  RH  060%=      5-min Rain = 0
KST2 252304Z 01011KT 25/17 A2985 RMK A01 T02510171  RH  061%=      5-min Rain = 0
KST2 252305Z 01010KT 25/16 A2985 RMK A01 T02510163  RH  058%=      5-min Rain = 0
KST2 252306Z 02009KT 25/17 A2985 RMK A01 T02490166  RH  060%=      5-min Rain = 0
KST2 252307Z 02009KT 25/16 A2985 RMK A01 T02490164  RH  059%=      5-min Rain = 0
KST2 252308Z 03008KT 25/17 A2985 RMK A01 T02480167  RH  061%=      5-min Rain = 0
KST2 252309Z 02008KT 25/17 A2985 RMK A01 T02480167  RH  061%=      5-min Rain = 0
KST2 252310Z 02008KT 25/17 A2986 RMK A01 T02480165  RH  060%=      5-min Rain = 0
KST2 252311Z 03007KT 25/17 A2986 RMK A01 T02480174  RH  064%=      5-min Rain = 0
KST2 252312Z 02008KT 25/17 A2986 RMK A01 T02480171  RH  062%=      5-min Rain = 0
KST2 252313Z 01010KT 25/17 A2986 RMK A01 T02470166  RH  061%=      5-min Rain = 0
KST2 252314Z 00010KT 25/16 A2986 RMK A01 T02460161  RH  059%=      5-min Rain = 0
KST2 252315Z 36009KT 25/16 A2986 RMK A01 T02450159  RH  059%=      5-min Rain = 0
KST2 252316Z 36010KT 24/16 A2986 RMK A01 T02440156  RH  058%=      5-min Rain = 0
KST2 252317Z 00010KT 24/16 A2986 RMK A01 T02440163  RH  061%=      5-min Rain = 0
KST2 252318Z 00010KT 24/16 A2986 RMK A01 T02440161  RH  060%=      5-min Rain = 0
KST2 252319Z 00008KT 24/16 A2986 RMK A01 T02430162  RH  061%=      5-min Rain = 0
KST2 252320Z 36008KT 24/16 A2986 RMK A01 T02420161  RH  060%=      5-min Rain = 0
KST2 252321Z 35007KT 24/16 A2986 RMK A01 T02420158  RH  059%=      5-min Rain = 0
KST2 252322Z 35008KT 24/15 A2986 RMK A01 T02420154  RH  058%=      5-min Rain = 0
KST2 252323Z 35008KT 24/16 A2986 RMK A01 T02420156  RH  059%=      5-min Rain = 0
KST2 252324Z 35007KT 24/16 A2986 RMK A01 T02420159  RH  060%=      5-min Rain = 0
KST2 252325Z 36007KT 24/16 A2986 RMK A01 T02420159  RH  060%=      5-min Rain = 0
KST2 252326Z 00008KT 24/16 A2986 RMK A01 T02420161  RH  060%=      5-min Rain = 0
KST2 252327Z 35007KT 24/16 A2986 RMK A01 T02420158  RH  059%=      5-min Rain = 0
KST2 252328Z 35008KT 24/16 A2986 RMK A01 T02420157  RH  059%=      5-min Rain = 0
KST2 252329Z 36011KT 24/16 A2986 RMK A01 T02420156  RH  059%=      5-min Rain = 0
KST2 252330Z 35011KT 24/15 A2986 RMK A01 T02420154  RH  058%=      5-min Rain = 0
KST2 252331Z 35011KT 24/15 A2986 RMK A01 T02420151  RH  057%=      5-min Rain = 0
KST2 252332Z 34010KT 24/15 A2986 RMK A01 T02420151  RH  057%=      5-min Rain = 0
KST2 252333Z 35009KT 24/15 A2986 RMK A01 T02420151  RH  057%=      5-min Rain = 0
KST2 252334Z 35009KT 24/15 A2986 RMK A01 T02420152  RH  057%=      5-min Rain = 0
KST2 252335Z 35008KT 24/15 A2986 RMK A01 T02430150  RH  056%=      5-min Rain = 0
KST2 252336Z 35008KT 24/16 A2986 RMK A01 T02430157  RH  059%=      5-min Rain = 0
KST2 252337Z 35009KT 24/15 A2986 RMK A01 T02430152  RH  057%=      5-min Rain = 0
KST2 252338Z 35008KT 24/16 A2986 RMK A01 T02420156  RH  059%=      5-min Rain = 0
KST2 252339Z 36007KT 24/15 A2986 RMK A01 T02420152  RH  057%=      5-min Rain = 0
KST2 252340Z 36008KT 24/16 A2986 RMK A01 T02420155  RH  058%=      5-min Rain = 0
KST2 252341Z 00009KT 24/16 A2986 RMK A01 T02420156  RH  058%=      5-min Rain = 0
KST2 252342Z 35008KT 24/16 A2986 RMK A01 T02420156  RH  059%=      5-min Rain = 0
KST2 252343Z 34008KT 24/15 A2986 RMK A01 T02420152  RH  057%=      5-min Rain = 0
KST2 252344Z 34009KT 24/15 A2986 RMK A01 T02420151  RH  057%=      5-min Rain = 0
KST2 252345Z 35008KT 24/15 A2986 RMK A01 T02420153  RH  057%=      5-min Rain = 0
KST2 252346Z 35008KT 24/16 A2986 RMK A01 T02420155  RH  058%=      5-min Rain = 0
KST2 252347Z 35010KT 24/16 A2986 RMK A01 T02430156  RH  058%=      5-min Rain = 0
KST2 252348Z 35009KT 24/16 A2986 RMK A01 T02430155  RH  058%=      5-min Rain = 0
KST2 252349Z 36009KT 24/16 A2986 RMK A01 T02420155  RH  058%=      5-min Rain = 0
KST2 252350Z 01008KT 24/16 A2986 RMK A01 T02420159  RH  060%=      5-min Rain = 0
KST2 252351Z 00008KT 24/16 A2986 RMK A01 T02410163  RH  061%=      5-min Rain = 0
KST2 252352Z 00010KT 24/16 A2986 RMK A01 T02410162  RH  061%=      5-min Rain = 0
KST2 252353Z 00010KT 24/16 A2986 RMK A01 T02400160  RH  061%=      5-min Rain = 0
KST2 252354Z 00009KT 24/16 A2986 RMK A01 T02390159  RH  061%=      5-min Rain = 0
KST2 252355Z 00009KT 24/16 A2986 RMK A01 T02390161  RH  062%=      5-min Rain = 0
KST2 252356Z 00011KT 24/16 A2986 RMK A01 T02390163  RH  062%=      5-min Rain = 0
KST2 252357Z 01012KT 24/17 A2986 RMK A01 T02380165  RH  064%=      5-min Rain = 0
KST2 252358Z 00012KT 24/17 A2986 RMK A01 T02370165  RH  064%=      5-min Rain = 0
KST2 252359Z 00012KT 24/16 A2986 RMK A01 T02360164  RH  064%=      5-min Rain = 0
KST2 260000Z 01012KT 24/17 A2986 RMK A01 T02350165  RH  065%=      5-min Rain = 0
KST2 260001Z 01012KT 24/17 A2986 RMK A01 T02350165  RH  065%=      5-min Rain = 0
KST2 260002Z 01011KT 23/17 A2986 RMK A01 T02340165  RH  065%=      5-min Rain = 0
KST2 260003Z 00011KT 23/17 A2986 RMK A01 T02330166  RH  066%=      5-min Rain = 0
KST2 260004Z 00011KT 23/16 A2986 RMK A01 T02330164  RH  065%=      5-min Rain = 0
KST2 260005Z 00010KT 23/17 A2986 RMK A01 T02330166  RH  066%=      5-min Rain = 0
KST2 260006Z 00011KT 23/17 A2986 RMK A01 T02330165  RH  066%=      5-min Rain = 0
KST2 260007Z 00011KT 23/16 A2986 RMK A01 T02330163  RH  065%=      5-min Rain = 0
KST2 260008Z 00010KT 23/16 A2986 RMK A01 T02320162  RH  065%=      5-min Rain = 0
KST2 260009Z 00010KT 23/17 A2986 RMK A01 T02330166  RH  066%=      5-min Rain = 0
KST2 260010Z 00011KT 23/16 A2986 RMK A01 T02320164  RH  065%=      5-min Rain = 0
KST2 260011Z 00009KT 23/16 A2986 RMK A01 T02320164  RH  065%=      5-min Rain = 0
KST2 260012Z 01010KT 23/17 A2986 RMK A01 T02320165  RH  066%=      5-min Rain = 0
KST2 260013Z 01009KT 23/17 A2986 RMK A01 T02320167  RH  067%=      5-min Rain = 0
KST2 260014Z 01012KT 23/16 A2986 RMK A01 T02320163  RH  065%=      5-min Rain = 0
KST2 260015Z 01011KT 23/16 A2986 RMK A01 T02320163  RH  065%=      5-min Rain = 0
KST2 260016Z 02010KT 23/17 A2986 RMK A01 T02320165  RH  066%=      5-min Rain = 0
KST2 260017Z 01011KT 23/17 A2986 RMK A01 T02330166  RH  066%=      5-min Rain = 0
KST2 260018Z 01011KT 23/17 A2986 RMK A01 T02330168  RH  067%=      5-min Rain = 0
KST2 260019Z 01011KT 23/17 A2986 RMK A01 T02330170  RH  068%=      5-min Rain = 0
KST2 260020Z 01011KT 23/17 A2986 RMK A01 T02330167  RH  066%=      5-min Rain = 0
KST2 260021Z 01013KT 23/16 A2986 RMK A01 T02330164  RH  065%=      5-min Rain = 0
KST2 260022Z 01014KT 23/16 A2986 RMK A01 T02330163  RH  065%=      5-min Rain = 0
KST2 260023Z 01012KT 23/16 A2986 RMK A01 T02320161  RH  064%=      5-min Rain = 0
KST2 260024Z 01012KT 23/17 A2986 RMK A01 T02330167  RH  067%=      5-min Rain = 0
KST2 260025Z 01011KT 23/17 A2986 RMK A01 T02330165  RH  066%=      5-min Rain = 0
KST2 260026Z 01012KT 23/17 A2987 RMK A01 T02320166  RH  066%=      5-min Rain = 0
KST2 260027Z 01012KT 23/17 A2987 RMK A01 T02320166  RH  066%=      5-min Rain = 0
KST2 260028Z 01012KT 23/16 A2987 RMK A01 T02310163  RH  065%=      5-min Rain = 0
KST2 260029Z 01011KT 23/17 A2987 RMK A01 T02310166  RH  067%=      5-min Rain = 0
KST2 260030Z 01012KT 23/17 A2987 RMK A01 T02300165  RH  067%=      5-min Rain = 0
KST2 260031Z 01011KT 23/16 A2987 RMK A01 T02290163  RH  066%=      5-min Rain = 0
KST2 260032Z 01010KT 23/17 A2987 RMK A01 T02290165  RH  067%=      5-min Rain = 0
KST2 260033Z 01010KT 23/17 A2987 RMK A01 T02280165  RH  068%=      5-min Rain = 0
KST2 260034Z 00010KT 23/16 A2987 RMK A01 T02270164  RH  067%=      5-min Rain = 0
KST2 260035Z 00009KT 23/17 A2987 RMK A01 T02270167  RH  069%=      5-min Rain = 0
KST2 260036Z 00010KT 23/17 A2987 RMK A01 T02270166  RH  068%=      5-min Rain = 0
KST2 260037Z 00011KT 23/16 A2987 RMK A01 T02270164  RH  068%=      5-min Rain = 0
KST2 260038Z 01011KT 23/16 A2987 RMK A01 T02270163  RH  067%=      5-min Rain = 0
KST2 260039Z 00010KT 23/16 A2987 RMK A01 T02260164  RH  068%=      5-min Rain = 0
KST2 260040Z 00011KT 23/16 A2987 RMK A01 T02260162  RH  067%=      5-min Rain = 0
KST2 260041Z 00010KT 23/16 A2987 RMK A01 T02260161  RH  067%=      5-min Rain = 0
KST2 260042Z 01010KT 23/16 A2987 RMK A01 T02260164  RH  068%=      5-min Rain = 0
KST2 260043Z 01010KT 23/17 A2987 RMK A01 T02250165  RH  069%=      5-min Rain = 0
KST2 260044Z 01010KT 22/16 A2987 RMK A01 T02240164  RH  068%=      5-min Rain = 0
KST2 260045Z 01010KT 22/16 A2987 RMK A01 T02240163  RH  069%=      5-min Rain = 0
KST2 260046Z 01010KT 22/16 A2987 RMK A01 T02240163  RH  069%=      5-min Rain = 0
KST2 260047Z 01010KT 22/16 A2987 RMK A01 T02240163  RH  069%=      5-min Rain = 0
KST2 260048Z 01010KT 22/16 A2987 RMK A01 T02230164  RH  069%=      5-min Rain = 0
KST2 260049Z 01011KT 22/16 A2987 RMK A01 T02230163  RH  069%=      5-min Rain = 0
KST2 260050Z 01010KT 22/16 A2987 RMK A01 T02220164  RH  069%=      5-min Rain = 0
KST2 260051Z 01010KT 22/17 A2987 RMK A01 T02230165  RH  070%=      5-min Rain = 0
KST2 260052Z 01011KT 22/16 A2987 RMK A01 T02220164  RH  069%=      5-min Rain = 0
KST2 260053Z 01011KT 22/16 A2987 RMK A01 T02220164  RH  069%=      5-min Rain = 0
KST2 260054Z 01012KT 22/16 A2987 RMK A01 T02220162  RH  069%=      5-min Rain = 0
KST2 260055Z 01011KT 22/16 A2987 RMK A01 T02220164  RH  070%=      5-min Rain = 0
KST2 260056Z 01012KT 22/16 A2987 RMK A01 T02220163  RH  069%=      5-min Rain = 0
KST2 260057Z 01014KT 22/16 A2987 RMK A01 T02210162  RH  069%=      5-min Rain = 0
KST2 260058Z 01015KT 22/16 A2987 RMK A01 T02210158  RH  067%=      5-min Rain = 0
KST2 260059Z 01013KT 22/16 A2987 RMK A01 T02220158  RH  067%=      5-min Rain = 0
KST2 260100Z 01011KT 22/16 A2987 RMK A01 T02220162  RH  069%=      5-min Rain = 0
KST2 260101Z 01011KT 22/16 A2987 RMK A01 T02220164  RH  070%=      5-min Rain = 0
KST2 260102Z 02010KT 22/17 A2987 RMK A01 T02210166  RH  071%=      5-min Rain = 0
KST2 260103Z 02010KT 22/17 A2987 RMK A01 T02200165  RH  071%=      5-min Rain = 0
KST2 260104Z 02011KT 22/16 A2987 RMK A01 T02200163  RH  070%=      5-min Rain = 0
KST2 260105Z 02011KT 22/16 A2987 RMK A01 T02200162  RH  070%=      5-min Rain = 0
KST2 260106Z 02010KT 22/17 A2987 RMK A01 T02200165  RH  071%=      5-min Rain = 0
KST2 260107Z 02010KT 22/17 A2987 RMK A01 T02190166  RH  072%=      5-min Rain = 0
KST2 260108Z 01010KT 22/17 A2987 RMK A01 T02190165  RH  072%=      5-min Rain = 0
KST2 260109Z 01011KT 22/17 A2987 RMK A01 T02180166  RH  072%=      5-min Rain = 0
KST2 260110Z 01012KT 22/16 A2988 RMK A01 T02180164  RH  071%=      5-min Rain = 0
KST2 260111Z 01011KT 22/17 A2988 RMK A01 T02180165  RH  072%=      5-min Rain = 0
KST2 260112Z 01011KT 22/16 A2988 RMK A01 T02180164  RH  072%=      5-min Rain = 0
KST2 260113Z 01011KT 22/17 A2988 RMK A01 T02180165  RH  072%=      5-min Rain = 0
KST2 260114Z 01010KT 22/17 A2988 RMK A01 T02170165  RH  072%=      5-min Rain = 0
KST2 260115Z 01011KT 22/17 A2988 RMK A01 T02170165  RH  072%=      5-min Rain = 0
KST2 260116Z 01012KT 22/17 A2988 RMK A01 T02170165  RH  072%=      5-min Rain = 0
KST2 260117Z 01010KT 22/16 A2988 RMK A01 T02160164  RH  072%=      5-min Rain = 0
KST2 260118Z 01010KT 22/17 A2988 RMK A01 T02160165  RH  073%=      5-min Rain = 0
KST2 260119Z 01009KT 22/17 A2988 RMK A01 T02160165  RH  073%=      5-min Rain = 0
KST2 260120Z 01010KT 22/16 A2988 RMK A01 T02150164  RH  072%=      5-min Rain = 0
KST2 260121Z 01009KT 22/17 A2988 RMK A01 T02150165  RH  073%=      5-min Rain = 0
KST2 260122Z 01009KT 22/17 A2988 RMK A01 T02150165  RH  073%=      5-min Rain = 0
KST2 260123Z 01010KT 22/16 A2988 RMK A01 T02150164  RH  073%=      5-min Rain = 0
KST2 260124Z 01010KT 21/16 A2988 RMK A01 T02140163  RH  073%=      5-min Rain = 0
KST2 260125Z 01010KT 21/16 A2989 RMK A01 T02140162  RH  072%=      5-min Rain = 0
KST2 260126Z 01009KT 21/16 A2989 RMK A01 T02140162  RH  072%=      5-min Rain = 0
KST2 260127Z 01009KT 21/16 A2989 RMK A01 T02140163  RH  072%=      5-min Rain = 0
KST2 260128Z 01008KT 21/16 A2989 RMK A01 T02140164  RH  073%=      5-min Rain = 0
KST2 260129Z 01008KT 21/16 A2989 RMK A01 T02140163  RH  073%=      5-min Rain = 0
KST2 260130Z 01009KT 21/16 A2989 RMK A01 T02140163  RH  073%=      5-min Rain = 0
KST2 260131Z 01009KT 21/16 A2989 RMK A01 T02140164  RH  073%=      5-min Rain = 0
KST2 260132Z 01010KT 21/16 A2989 RMK A01 T02130162  RH  073%=      5-min Rain = 0
KST2 260133Z 01009KT 21/16 A2989 RMK A01 T02130163  RH  073%=      5-min Rain = 0
KST2 260134Z 01008KT 21/16 A2989 RMK A01 T02130164  RH  073%=      5-min Rain = 0
KST2 260135Z 01008KT 21/16 A2989 RMK A01 T02130164  RH  074%=      5-min Rain = 0
KST2 260136Z 01008KT 21/17 A2989 RMK A01 T02130165  RH  074%=      5-min Rain = 0
KST2 260137Z 01008KT 21/16 A2989 RMK A01 T02130164  RH  074%=      5-min Rain = 0
KST2 260138Z 01008KT 21/17 A2989 RMK A01 T02130166  RH  074%=      5-min Rain = 0
KST2 260139Z 01008KT 21/17 A2989 RMK A01 T02130165  RH  074%=      5-min Rain = 0
KST2 260140Z 01008KT 21/17 A299 RMK A01 T02130166  RH  074%=      5-min Rain = 0
KST2 260141Z 01007KT 21/17 A299 RMK A01 T02130166  RH  075%=      5-min Rain = 0
KST2 260142Z 01007KT 21/17 A299 RMK A01 T02120167  RH  075%=      5-min Rain = 0
KST2 260143Z 01007KT 21/17 A299 RMK A01 T02130166  RH  075%=      5-min Rain = 0
KST2 260144Z 01007KT 21/17 A299 RMK A01 T02120166  RH  075%=      5-min Rain = 0
KST2 260145Z 01008KT 21/17 A299 RMK A01 T02120165  RH  074%=      5-min Rain = 0
KST2 260146Z 01007KT 21/17 A299 RMK A01 T02120166  RH  075%=      5-min Rain = 0
KST2 260147Z 01007KT 21/17 A299 RMK A01 T02120168  RH  076%=      5-min Rain = 0
KST2 260148Z 01007KT 21/17 A299 RMK A01 T02120168  RH  076%=      5-min Rain = 0
KST2 260149Z 01008KT 21/17 A299 RMK A01 T02120167  RH  075%=      5-min Rain = 0
KST2 260150Z 01008KT 21/17 A299 RMK A01 T02120166  RH  075%=      5-min Rain = 0
KST2 260151Z 01008KT 21/17 A299 RMK A01 T02120166  RH  075%=      5-min Rain = 0
KST2 260152Z 01008KT 21/17 A299 RMK A01 T02120167  RH  075%=      5-min Rain = 0
KST2 260153Z 01007KT 21/17 A2991 RMK A01 T02120167  RH  075%=      5-min Rain = 0
KST2 260154Z 01008KT 21/17 A2991 RMK A01 T02120167  RH  076%=      5-min Rain = 0
KST2 260155Z 01008KT 21/17 A2991 RMK A01 T02120166  RH  075%=      5-min Rain = 0
KST2 260156Z 01008KT 21/17 A2991 RMK A01 T02120166  RH  075%=      5-min Rain = 0
KST2 260157Z 01008KT 21/17 A2991 RMK A01 T02120167  RH  075%=      5-min Rain = 0
KST2 260158Z 01008KT 21/17 A2991 RMK A01 T02120167  RH  075%=      5-min Rain = 0
KST2 260159Z 01008KT 21/17 A2991 RMK A01 T02120167  RH  075%=      5-min Rain = 0
KST2 260200Z 01007KT 21/17 A2991 RMK A01 T02110168  RH  076%=      5-min Rain = 0
KST2 260201Z 01008KT 21/17 A2991 RMK A01 T02110167  RH  076%=      5-min Rain = 0
KST2 260202Z 01007KT 21/17 A2991 RMK A01 T02110166  RH  075%=      5-min Rain = 0
KST2 260203Z 01008KT 21/17 A2991 RMK A01 T02110167  RH  076%=      5-min Rain = 0
KST2 260204Z 01008KT 21/17 A2991 RMK A01 T02110167  RH  076%=      5-min Rain = 0
KST2 260205Z 01009KT 21/17 A2991 RMK A01 T02110165  RH  075%=      5-min Rain = 0
KST2 260206Z 01008KT 21/17 A2991 RMK A01 T02110166  RH  075%=      5-min Rain = 0
KST2 260207Z 01009KT 21/17 A2991 RMK A01 T02110165  RH  075%=      5-min Rain = 0
KST2 260208Z 01010KT 21/17 A2991 RMK A01 T02120165  RH  074%=      5-min Rain = 0
KST2 260209Z 01010KT 21/16 A2991 RMK A01 T02110163  RH  074%=      5-min Rain = 0
KST2 260210Z 01010KT 21/16 A2991 RMK A01 T02110163  RH  074%=      5-min Rain = 0
KST2 260211Z 02010KT 21/16 A2991 RMK A01 T02120164  RH  074%=      5-min Rain = 0
KST2 260212Z 01009KT 21/17 A2991 RMK A01 T02110165  RH  075%=      5-min Rain = 0
KST2 260213Z 02009KT 21/16 A2991 RMK A01 T02110164  RH  074%=      5-min Rain = 0
KST2 260214Z 02009KT 21/17 A2991 RMK A01 T02110165  RH  075%=      5-min Rain = 0
KST2 260215Z 02009KT 21/17 A2991 RMK A01 T02110166  RH  075%=      5-min Rain = 0
KST2 260216Z 02009KT 21/17 A2991 RMK A01 T02110165  RH  075%=      5-min Rain = 0
KST2 260217Z 02009KT 21/17 A2991 RMK A01 T02100166  RH  076%=      5-min Rain = 0
KST2 260218Z 02010KT 21/17 A2991 RMK A01 T02100165  RH  076%=      5-min Rain = 0
KST2 260219Z 02009KT 21/17 A2991 RMK A01 T02100167  RH  076%=      5-min Rain = 0
KST2 260220Z 02010KT 21/17 A2991 RMK A01 T02090166  RH  076%=      5-min Rain = 0
KST2 260221Z 01010KT 21/17 A2991 RMK A01 T02090165  RH  076%=      5-min Rain = 0
KST2 260222Z 01010KT 21/17 A2991 RMK A01 T02090166  RH  077%=      5-min Rain = 0
KST2 260223Z 01010KT 21/17 A2991 RMK A01 T02090167  RH  077%=      5-min Rain = 0
KST2 260224Z 01009KT 21/17 A2991 RMK A01 T02090166  RH  077%=      5-min Rain = 0
KST2 260225Z 01010KT 21/17 A2991 RMK A01 T02080165  RH  076%=      5-min Rain = 0
KST2 260226Z 01010KT 21/16 A2991 RMK A01 T02080164  RH  076%=      5-min Rain = 0
KST2 260227Z 01010KT 21/16 A2991 RMK A01 T02080164  RH  076%=      5-min Rain = 0
KST2 260228Z 01011KT 21/16 A2991 RMK A01 T02080163  RH  075%=      5-min Rain = 0
KST2 260229Z 01010KT 21/16 A2991 RMK A01 T02080164  RH  076%=      5-min Rain = 0
KST2 260230Z 01010KT 21/16 A2992 RMK A01 T02080164  RH  076%=      5-min Rain = 0
KST2 260231Z 01009KT 21/17 A2992 RMK A01 T02080165  RH  076%=      5-min Rain = 0
KST2 260232Z 01009KT 21/17 A2992 RMK A01 T02080165  RH  076%=      5-min Rain = 0
KST2 260233Z 01009KT 21/17 A2992 RMK A01 T02070165  RH  077%=      5-min Rain = 0
KST2 260234Z 01009KT 21/16 A2992 RMK A01 T02070164  RH  076%=      5-min Rain = 0
KST2 260235Z 01009KT 21/17 A2992 RMK A01 T02070166  RH  077%=      5-min Rain = 0
KST2 260236Z 01009KT 21/17 A2992 RMK A01 T02070165  RH  077%=      5-min Rain = 0
KST2 260237Z 01009KT 21/17 A2992 RMK A01 T02070165  RH  077%=      5-min Rain = 0
KST2 260238Z 01010KT 21/16 A2992 RMK A01 T02060164  RH  077%=      5-min Rain = 0
KST2 260239Z 01010KT 21/16 A2992 RMK A01 T02060164  RH  076%=      5-min Rain = 0
KST2 260240Z 01010KT 21/16 A2993 RMK A01 T02060164  RH  076%=      5-min Rain = 0
KST2 260241Z 01010KT 21/16 A2993 RMK A01 T02060162  RH  076%=      5-min Rain = 0
KST2 260242Z 01010KT 21/16 A2993 RMK A01 T02060162  RH  076%=      5-min Rain = 0
KST2 260243Z 01010KT 21/16 A2993 RMK A01 T02060162  RH  076%=      5-min Rain = 0
KST2 260244Z 01010KT 21/16 A2993 RMK A01 T02060161  RH  075%=      5-min Rain = 0
KST2 260245Z 01010KT 21/16 A2993 RMK A01 T02060161  RH  075%=      5-min Rain = 0
KST2 260246Z 01009KT 21/16 A2993 RMK A01 T02060162  RH  076%=      5-min Rain = 0
KST2 260247Z 01010KT 21/16 A2993 RMK A01 T02060162  RH  076%=      5-min Rain = 0
KST2 260248Z 01009KT 21/16 A2994 RMK A01 T02060162  RH  076%=      5-min Rain = 0
KST2 260249Z 01010KT 21/16 A2994 RMK A01 T02060161  RH  075%=      5-min Rain = 0
KST2 260250Z 02009KT 21/16 A2994 RMK A01 T02060162  RH  076%=      5-min Rain = 0
KST2 260251Z 02008KT 21/16 A2994 RMK A01 T02060163  RH  076%=      5-min Rain = 0
KST2 260252Z 01008KT 21/16 A2994 RMK A01 T02050163  RH  076%=      5-min Rain = 0
KST2 260253Z 02009KT 21/16 A2994 RMK A01 T02050163  RH  076%=      5-min Rain = 0
KST2 260254Z 02009KT 21/16 A2994 RMK A01 T02050161  RH  076%=      5-min Rain = 0
KST2 260255Z 02009KT 21/16 A2994 RMK A01 T02050162  RH  076%=      5-min Rain = 0
KST2 260256Z 02008KT 21/16 A2994 RMK A01 T02050163  RH  077%=      5-min Rain = 0
KST2 260257Z 02008KT 21/16 A2994 RMK A01 T02050163  RH  077%=      5-min Rain = 0
KST2 260258Z 02008KT 21/16 A2995 RMK A01 T02050163  RH  077%=      5-min Rain = 0
KST2 260259Z 02008KT 21/16 A2995 RMK A01 T02050164  RH  077%=      5-min Rain = 0
KST2 260300Z 02007KT 20/16 A2995 RMK A01 T02040163  RH  077%=      5-min Rain = 0
KST2 260301Z 02008KT 20/16 A2995 RMK A01 T02040164  RH  078%=      5-min Rain = 0
KST2 260302Z 02007KT 20/16 A2995 RMK A01 T02040164  RH  078%=      5-min Rain = 0
KST2 260303Z 02007KT 20/16 A2995 RMK A01 T02040163  RH  077%=      5-min Rain = 0
KST2 260304Z 02007KT 20/16 A2995 RMK A01 T02040164  RH  078%=      5-min Rain = 0
KST2 260305Z 02007KT 20/16 A2995 RMK A01 T02040163  RH  077%=      5-min Rain = 0
KST2 260306Z 02007KT 20/16 A2995 RMK A01 T02040164  RH  078%=      5-min Rain = 0
KST2 260307Z 02007KT 20/17 A2995 RMK A01 T02040165  RH  078%=      5-min Rain = 0
KST2 260308Z 02007KT 20/17 A2995 RMK A01 T02040165  RH  078%=      5-min Rain = 0
KST2 260309Z 02007KT 20/17 A2995 RMK A01 T02040165  RH  078%=      5-min Rain = 0
KST2 260310Z 02007KT 20/17 A2995 RMK A01 T02030165  RH  078%=      5-min Rain = 0
KST2 260311Z 02006KT 20/17 A2995 RMK A01 T02030166  RH  079%=      5-min Rain = 0
KST2 260312Z 02006KT 20/17 A2995 RMK A01 T02030165  RH  079%=      5-min Rain = 0
KST2 260313Z 02006KT 20/17 A2995 RMK A01 T02030165  RH  079%=      5-min Rain = 0
KST2 260314Z 02006KT 20/17 A2995 RMK A01 T02030165  RH  079%=      5-min Rain = 0
KST2 260315Z 02006KT 20/17 A2995 RMK A01 T02030166  RH  079%=      5-min Rain = 0
KST2 260316Z 01007KT 20/17 A2994 RMK A01 T02030166  RH  079%=      5-min Rain = 0
KST2 260317Z 02006KT 20/17 A2994 RMK A01 T02030166  RH  079%=      5-min Rain = 0
KST2 260318Z 01007KT 20/17 A2995 RMK A01 T02030167  RH  080%=      5-min Rain = 0
KST2 260319Z 01007KT 20/17 A2995 RMK A01 T02030167  RH  080%=      5-min Rain = 0
KST2 260320Z 01007KT 20/17 A2995 RMK A01 T02020167  RH  080%=      5-min Rain = 0
KST2 260321Z 00007KT 20/17 A2995 RMK A01 T02020167  RH  080%=      5-min Rain = 0
KST2 260322Z 00008KT 20/17 A2995 RMK A01 T02020168  RH  081%=      5-min Rain = 0
KST2 260323Z 00007KT 20/17 A2995 RMK A01 T02020167  RH  080%=      5-min Rain = 0
KST2 260324Z 36008KT 20/17 A2995 RMK A01 T02020166  RH  080%=      5-min Rain = 0
KST2 260325Z 36008KT 20/17 A2995 RMK A01 T02020166  RH  080%=      5-min Rain = 0
KST2 260326Z 00007KT 20/17 A2995 RMK A01 T02030165  RH  079%=      5-min Rain = 0
KST2 260327Z 36007KT 20/17 A2995 RMK A01 T02030165  RH  079%=      5-min Rain = 0
KST2 260328Z 36006KT 20/17 A2995 RMK A01 T02020166  RH  079%=      5-min Rain = 0
KST2 260329Z 36006KT 20/17 A2995 RMK A01 T02020167  RH  080%=      5-min Rain = 0
KST2 260330Z 36006KT 20/17 A2995 RMK A01 T02020167  RH  080%=      5-min Rain = 0
KST2 260331Z 36006KT 20/17 A2995 RMK A01 T02020168  RH  081%=      5-min Rain = 0
KST2 260332Z 36005KT 20/17 A2995 RMK A01 T02010167  RH  081%=      5-min Rain = 0
KST2 260333Z 35006KT 20/17 A2995 RMK A01 T02010167  RH  081%=      5-min Rain = 0
KST2 260334Z 35006KT 20/17 A2995 RMK A01 T02000168  RH  082%=      5-min Rain = 0
KST2 260335Z 34006KT 20/17 A2995 RMK A01 T02000169  RH  082%=      5-min Rain = 0
KST2 260336Z 34006KT 20/17 A2995 RMK A01 T02000170  RH  083%=      5-min Rain = 0
KST2 260337Z 34006KT 20/17 A2995 RMK A01 T01990170  RH  083%=      5-min Rain = 0
KST2 260338Z 34006KT 20/17 A2995 RMK A01 T01990170  RH  083%=      5-min Rain = 0
KST2 260339Z 34006KT 20/17 A2995 RMK A01 T01990170  RH  084%=      5-min Rain = 0
KST2 260340Z 34005KT 20/17 A2995 RMK A01 T01990170  RH  084%=      5-min Rain = 0
KST2 260341Z 34005KT 20/17 A2995 RMK A01 T01980170  RH  084%=      5-min Rain = 0
KST2 260342Z 34005KT 20/17 A2995 RMK A01 T01980169  RH  083%=      5-min Rain = 0
KST2 260343Z 34006KT 20/17 A2995 RMK A01 T01980169  RH  083%=      5-min Rain = 0
KST2 260344Z 34006KT 20/17 A2995 RMK A01 T01980168  RH  083%=      5-min Rain = 0
KST2 260345Z 34005KT 20/17 A2996 RMK A01 T01980167  RH  082%=      5-min Rain = 0
KST2 260346Z 34005KT 20/17 A2996 RMK A01 T01980166  RH  082%=      5-min Rain = 0
KST2 260347Z 34005KT 20/17 A2996 RMK A01 T01990167  RH  082%=      5-min Rain = 0
KST2 260348Z 34005KT 20/17 A2996 RMK A01 T01980167  RH  082%=      5-min Rain = 0
KST2 260349Z 35005KT 20/17 A2996 RMK A01 T01990166  RH  082%=      5-min Rain = 0
KST2 260350Z 35005KT 20/17 A2996 RMK A01 T01990166  RH  082%=      5-min Rain = 0
KST2 260351Z 35006KT 20/16 A2996 RMK A01 T01990164  RH  081%=      5-min Rain = 0
KST2 260352Z 35005KT 20/17 A2996 RMK A01 T01990165  RH  080%=      5-min Rain = 0
KST2 260353Z 36005KT 20/16 A2996 RMK A01 T02000164  RH  080%=      5-min Rain = 0
KST2 260354Z 35005KT 20/17 A2996 RMK A01 T02000165  RH  080%=      5-min Rain = 0
KST2 260355Z 36005KT 20/16 A2996 RMK A01 T02000164  RH  080%=      5-min Rain = 0
KST2 260356Z 35005KT 20/17 A2996 RMK A01 T02010166  RH  080%=      5-min Rain = 0
KST2 260357Z 36005KT 20/17 A2996 RMK A01 T02010166  RH  081%=      5-min Rain = 0
KST2 260358Z 35005KT 20/17 A2996 RMK A01 T02010167  RH  081%=      5-min Rain = 0
KST2 260359Z 35005KT 20/17 A2996 RMK A01 T02010167  RH  081%=      5-min Rain = 0
KST2 260400Z 35004KT 20/17 A2996 RMK A01 T02010168  RH  081%=      5-min Rain = 0
KST2 260401Z 35004KT 20/17 A2996 RMK A01 T02000168  RH  081%=      5-min Rain = 0
KST2 260402Z 34004KT 20/17 A2996 RMK A01 T02000168  RH  081%=      5-min Rain = 0
KST2 260403Z 34004KT 20/17 A2996 RMK A01 T02000167  RH  081%=      5-min Rain = 0
KST2 260404Z 34003KT 20/17 A2996 RMK A01 T02000168  RH  082%=      5-min Rain = 0
KST2 260405Z 34003KT 20/17 A2996 RMK A01 T02000168  RH  082%=      5-min Rain = 0
KST2 260406Z 34002KT 20/17 A2996 RMK A01 T01990168  RH  082%=      5-min Rain = 0
KST2 260407Z 34002KT 20/17 A2996 RMK A01 T01990168  RH  082%=      5-min Rain = 0
KST2 260408Z 33002KT 20/17 A2996 RMK A01 T01990170  RH  083%=      5-min Rain = 0
KST2 260409Z 32001KT 20/17 A2996 RMK A01 T01990170  RH  083%=      5-min Rain = 0
KST2 260410Z 32001KT 20/17 A2996 RMK A01 T02000171  RH  083%=      5-min Rain = 0
KST2 260411Z 33001KT 20/17 A2996 RMK A01 T01990171  RH  084%=      5-min Rain = 0
KST2 260412Z 34001KT 20/17 A2996 RMK A01 T01990170  RH  083%=      5-min Rain = 0
KST2 260413Z 35001KT 20/17 A2996 RMK A01 T01990168  RH  082%=      5-min Rain = 0
KST2 260414Z 34001KT 20/17 A2996 RMK A01 T01980166  RH  082%=      5-min Rain = 0
KST2 260415Z 01005KT 20/17 A2996 RMK A01 T01990165  RH  081%=      5-min Rain = 0
KST2 260416Z 36005KT 20/16 A2996 RMK A01 T01990162  RH  079%=      5-min Rain = 0
KST2 260417Z 36004KT 20/16 A2996 RMK A01 T01990164  RH  080%=      5-min Rain = 0
KST2 260418Z 00006KT 20/17 A2996 RMK A01 T02000165  RH  080%=      5-min Rain = 0
KST2 260419Z 36006KT 20/16 A2996 RMK A01 T02000164  RH  080%=      5-min Rain = 0
KST2 260420Z 36006KT 20/17 A2996 RMK A01 T02000165  RH  080%=      5-min Rain = 0
KST2 260421Z 36005KT 20/17 A2996 RMK A01 T02000165  RH  080%=      5-min Rain = 0
KST2 260422Z 36005KT 20/17 A2996 RMK A01 T02000165  RH  080%=      5-min Rain = 0
KST2 260423Z 00007KT 20/16 A2996 RMK A01 T01990163  RH  080%=      5-min Rain = 0
KST2 260424Z 00005KT 20/16 A2996 RMK A01 T01990162  RH  079%=      5-min Rain = 0.01
KST2 260425Z 36004KT 20/17 A2997 RMK A01 T02000165  RH  080%=      5-min Rain = 0
KST2 260426Z 00004KT 20/16 A2997 RMK A01 T01990164  RH  080%=      5-min Rain = 0
KST2 260427Z 36004KT 20/17 A2997 RMK A01 T01990165  RH  081%=      5-min Rain = 0
KST2 260428Z 00004KT 20/17 A2997 RMK A01 T01990165  RH  081%=      5-min Rain = 0
KST2 260429Z 36003KT 20/17 A2997 RMK A01 T01980165  RH  081%=      5-min Rain = 0
KST2 260430Z 00003KT 20/17 A2997 RMK A01 T01980165  RH  081%=      5-min Rain = 0
KST2 260431Z 00003KT 20/17 A2997 RMK A01 T01980166  RH  082%=      5-min Rain = 0
KST2 260432Z 01002KT 20/17 A2997 RMK A01 T01980166  RH  082%=      5-min Rain = 0
KST2 260433Z 01001KT 20/17 A2997 RMK A01 T01970166  RH  082%=      5-min Rain = 0
KST2 260434Z 01002KT 20/17 A2997 RMK A01 T01970167  RH  082%=      5-min Rain = 0
KST2 260435Z 35001KT 20/17 A2997 RMK A01 T01980167  RH  083%=      5-min Rain = 0
KST2 260436Z 36001KT 20/17 A2997 RMK A01 T01970166  RH  082%=      5-min Rain = 0
KST2 260437Z 00000KT 20/17 A2997 RMK A01 T01970166  RH  082%=      5-min Rain = 0
KST2 260438Z 00000KT 20/17 A2997 RMK A01 T01970166  RH  082%=      5-min Rain = 0
KST2 260439Z 00000KT 20/17 A2997 RMK A01 T01970165  RH  082%=      5-min Rain = 0
KST2 260440Z 00000KT 20/16 A2997 RMK A01 T01960164  RH  082%=      5-min Rain = 0
KST2 260441Z 00000KT 20/17 A2997 RMK A01 T01960165  RH  082%=      5-min Rain = 0
KST2 260442Z 00000KT 20/17 A2997 RMK A01 T01960166  RH  083%=      5-min Rain = 0
KST2 260443Z 00000KT 20/17 A2997 RMK A01 T01960166  RH  083%=      5-min Rain = 0
KST2 260444Z 00000KT 20/17 A2997 RMK A01 T01960168  RH  084%=      5-min Rain = 0
KST2 260445Z 00000KT 20/17 A2997 RMK A01 T01960168  RH  084%=      5-min Rain = 0
KST2 260446Z 00000KT 20/17 A2997 RMK A01 T01960168  RH  084%=      5-min Rain = 0
KST2 260447Z 00000KT 20/17 A2997 RMK A01 T01960169  RH  084%=      5-min Rain = 0
KST2 260448Z 00000KT 20/17 A2997 RMK A01 T01960167  RH  083%=      5-min Rain = 0
KST2 260449Z 00000KT 20/17 A2997 RMK A01 T01960167  RH  083%=      5-min Rain = 0
KST2 260450Z 02002KT 20/17 A2997 RMK A01 T01950166  RH  083%=      5-min Rain = 0
KST2 260451Z 05001KT 20/17 A2997 RMK A01 T01950165  RH  083%=      5-min Rain = 0.01
KST2 260452Z 02002KT 20/16 A2997 RMK A01 T01950164  RH  082%=      5-min Rain = 0
KST2 260453Z 02002KT 20/16 A2997 RMK A01 T01950163  RH  082%=      5-min Rain = 0
KST2 260454Z 02002KT 20/16 A2997 RMK A01 T01950163  RH  082%=      5-min Rain = 0
KST2 260455Z 02002KT 20/16 A2997 RMK A01 T01950164  RH  082%=      5-min Rain = 0
KST2 260456Z 03002KT 20/16 A2997 RMK A01 T01950164  RH  082%=      5-min Rain = 0
KST2 260457Z 03002KT 20/16 A2997 RMK A01 T01950164  RH  082%=      5-min Rain = 0
KST2 260458Z 04002KT 20/16 A2997 RMK A01 T01950164  RH  082%=      5-min Rain = 0
KST2 260459Z 04002KT 20/16 A2997 RMK A01 T01950164  RH  082%=      5-min Rain = 0

Page generated in 0.1365 seconds.